<?xml version="1.0" encoding="UTF-8" standalone="no" ?>
<gpx xmlns="http://www.topografix.com/GPX/1/1" xmlns:xsi="http://www.w3.org/2001/XMLSchema-instance" xsi:schemaLocation="http://www.topografix.com/GPX/1/1 http://www.topografix.com/GPX/1/1/gpx.xsd" version="1.1" creator="VisuGPX - https://www.visugpx.com">
  <metadata>
    <name>2014_01_VTT_Phalsbourg - Brunenthal_10km </name>
    <desc><![CDATA[Petit circuit VTT agréable et rapide pour se décrasser !]]></desc>
  </metadata>
  <trk>
    <name><![CDATA[2014_01_VTT_Phalsbourg - Brunenthal_10km _1]]></name>
    <trkseg>
      <trkpt lat="48.74602" lon="7.25871">
        <ele>355.68</ele>
        <time>2014-01-01T14:36:55.041Z</time>
      </trkpt>
      <trkpt lat="48.74608" lon="7.2586">
        <ele>349.68</ele>
        <time>2014-01-01T14:37:21.053Z</time>
      </trkpt>
      <trkpt lat="48.74611" lon="7.25843">
        <ele>348.46</ele>
        <time>2014-01-01T14:37:25.064Z</time>
      </trkpt>
      <trkpt lat="48.74602" lon="7.25833">
        <ele>357.27</ele>
        <time>2014-01-01T14:37:30.063Z</time>
      </trkpt>
      <trkpt lat="48.74592" lon="7.25832">
        <ele>363.11</ele>
        <time>2014-01-01T14:37:33.051Z</time>
      </trkpt>
      <trkpt lat="48.74578" lon="7.25828">
        <ele>364.68</ele>
        <time>2014-01-01T14:37:36.057Z</time>
      </trkpt>
      <trkpt lat="48.74569" lon="7.25824">
        <ele>365.31</ele>
        <time>2014-01-01T14:37:38.060Z</time>
      </trkpt>
      <trkpt lat="48.7456" lon="7.2582">
        <ele>364.42</ele>
        <time>2014-01-01T14:37:40.023Z</time>
      </trkpt>
      <trkpt lat="48.74549" lon="7.25814">
        <ele>360.51</ele>
        <time>2014-01-01T14:37:42.049Z</time>
      </trkpt>
      <trkpt lat="48.74538" lon="7.25805">
        <ele>358.87</ele>
        <time>2014-01-01T14:37:44.026Z</time>
      </trkpt>
      <trkpt lat="48.74527" lon="7.25796">
        <ele>358.71</ele>
        <time>2014-01-01T14:37:46.038Z</time>
      </trkpt>
      <trkpt lat="48.74517" lon="7.25786">
        <ele>357.77</ele>
        <time>2014-01-01T14:37:48.047Z</time>
      </trkpt>
      <trkpt lat="48.74506" lon="7.25775">
        <ele>357.15</ele>
        <time>2014-01-01T14:37:50.045Z</time>
      </trkpt>
      <trkpt lat="48.74495" lon="7.25766">
        <ele>354.86</ele>
        <time>2014-01-01T14:37:52.057Z</time>
      </trkpt>
      <trkpt lat="48.74484" lon="7.25754">
        <ele>353.59</ele>
        <time>2014-01-01T14:37:54.031Z</time>
      </trkpt>
      <trkpt lat="48.74472" lon="7.25742">
        <ele>356.51</ele>
        <time>2014-01-01T14:37:56.041Z</time>
      </trkpt>
      <trkpt lat="48.74458" lon="7.25731">
        <ele>354.47</ele>
        <time>2014-01-01T14:37:58.050Z</time>
      </trkpt>
      <trkpt lat="48.74443" lon="7.25724">
        <ele>352.3</ele>
        <time>2014-01-01T14:38:00.032Z</time>
      </trkpt>
      <trkpt lat="48.74428" lon="7.25719">
        <ele>348.42</ele>
        <time>2014-01-01T14:38:02.055Z</time>
      </trkpt>
      <trkpt lat="48.74415" lon="7.25714">
        <ele>347.59</ele>
        <time>2014-01-01T14:38:04.026Z</time>
      </trkpt>
      <trkpt lat="48.74404" lon="7.2571">
        <ele>343.28</ele>
        <time>2014-01-01T14:38:06.039Z</time>
      </trkpt>
      <trkpt lat="48.74393" lon="7.25704">
        <ele>343.02</ele>
        <time>2014-01-01T14:38:08.042Z</time>
      </trkpt>
      <trkpt lat="48.74382" lon="7.257">
        <ele>340.36</ele>
        <time>2014-01-01T14:38:10.030Z</time>
      </trkpt>
      <trkpt lat="48.74372" lon="7.25696">
        <ele>336.19</ele>
        <time>2014-01-01T14:38:12.036Z</time>
      </trkpt>
      <trkpt lat="48.74362" lon="7.2569">
        <ele>336.41</ele>
        <time>2014-01-01T14:38:14.027Z</time>
      </trkpt>
      <trkpt lat="48.74349" lon="7.25682">
        <ele>334.82</ele>
        <time>2014-01-01T14:38:17.044Z</time>
      </trkpt>
      <trkpt lat="48.7434" lon="7.25676">
        <ele>340.92</ele>
        <time>2014-01-01T14:38:19.029Z</time>
      </trkpt>
      <trkpt lat="48.74329" lon="7.25671">
        <ele>342.02</ele>
        <time>2014-01-01T14:38:22.042Z</time>
      </trkpt>
      <trkpt lat="48.74317" lon="7.25666">
        <ele>339.76</ele>
        <time>2014-01-01T14:38:26.039Z</time>
      </trkpt>
      <trkpt lat="48.74308" lon="7.25658">
        <ele>338.86</ele>
        <time>2014-01-01T14:38:29.027Z</time>
      </trkpt>
      <trkpt lat="48.74298" lon="7.25643">
        <ele>339.89</ele>
        <time>2014-01-01T14:38:32.043Z</time>
      </trkpt>
      <trkpt lat="48.74292" lon="7.25632">
        <ele>339.29</ele>
        <time>2014-01-01T14:38:34.031Z</time>
      </trkpt>
      <trkpt lat="48.74285" lon="7.2562">
        <ele>348.92</ele>
        <time>2014-01-01T14:38:36.045Z</time>
      </trkpt>
      <trkpt lat="48.74277" lon="7.25608">
        <ele>343.47</ele>
        <time>2014-01-01T14:38:39.030Z</time>
      </trkpt>
      <trkpt lat="48.74269" lon="7.25593">
        <ele>341.4</ele>
        <time>2014-01-01T14:38:42.050Z</time>
      </trkpt>
      <trkpt lat="48.74262" lon="7.25578">
        <ele>340.06</ele>
        <time>2014-01-01T14:38:44.032Z</time>
      </trkpt>
      <trkpt lat="48.74252" lon="7.2556">
        <ele>338.8</ele>
        <time>2014-01-01T14:38:46.046Z</time>
      </trkpt>
      <trkpt lat="48.74246" lon="7.25548">
        <ele>339.11</ele>
        <time>2014-01-01T14:38:48.059Z</time>
      </trkpt>
      <trkpt lat="48.74238" lon="7.25535">
        <ele>337.4</ele>
        <time>2014-01-01T14:38:51.047Z</time>
      </trkpt>
      <trkpt lat="48.7423" lon="7.25525">
        <ele>342.15</ele>
        <time>2014-01-01T14:38:53.038Z</time>
      </trkpt>
      <trkpt lat="48.74223" lon="7.25517">
        <ele>335.27</ele>
        <time>2014-01-01T14:38:55.044Z</time>
      </trkpt>
      <trkpt lat="48.74211" lon="7.25511">
        <ele>331.65</ele>
        <time>2014-01-01T14:38:57.041Z</time>
      </trkpt>
      <trkpt lat="48.74196" lon="7.25505">
        <ele>332.72</ele>
        <time>2014-01-01T14:38:59.027Z</time>
      </trkpt>
      <trkpt lat="48.74181" lon="7.25499">
        <ele>326.68</ele>
        <time>2014-01-01T14:39:01.047Z</time>
      </trkpt>
      <trkpt lat="48.7417" lon="7.25493">
        <ele>327.96</ele>
        <time>2014-01-01T14:39:03.026Z</time>
      </trkpt>
      <trkpt lat="48.74161" lon="7.25488">
        <ele>325.74</ele>
        <time>2014-01-01T14:39:05.047Z</time>
      </trkpt>
      <trkpt lat="48.74149" lon="7.25483">
        <ele>321.94</ele>
        <time>2014-01-01T14:39:08.047Z</time>
      </trkpt>
      <trkpt lat="48.74136" lon="7.25477">
        <ele>322.5</ele>
        <time>2014-01-01T14:39:11.052Z</time>
      </trkpt>
      <trkpt lat="48.74125" lon="7.25474">
        <ele>313.61</ele>
        <time>2014-01-01T14:39:13.034Z</time>
      </trkpt>
      <trkpt lat="48.74114" lon="7.2547">
        <ele>309.59</ele>
        <time>2014-01-01T14:39:16.056Z</time>
      </trkpt>
      <trkpt lat="48.74103" lon="7.25469">
        <ele>313.25</ele>
        <time>2014-01-01T14:39:18.056Z</time>
      </trkpt>
      <trkpt lat="48.74091" lon="7.25467">
        <ele>310.71</ele>
        <time>2014-01-01T14:39:20.060Z</time>
      </trkpt>
      <trkpt lat="48.74077" lon="7.25466">
        <ele>312.2</ele>
        <time>2014-01-01T14:39:22.056Z</time>
      </trkpt>
      <trkpt lat="48.74067" lon="7.25466">
        <ele>310.81</ele>
        <time>2014-01-01T14:39:24.038Z</time>
      </trkpt>
      <trkpt lat="48.74058" lon="7.2547">
        <ele>309.68</ele>
        <time>2014-01-01T14:39:26.053Z</time>
      </trkpt>
      <trkpt lat="48.74045" lon="7.25477">
        <ele>320.49</ele>
        <time>2014-01-01T14:39:29.034Z</time>
      </trkpt>
      <trkpt lat="48.74034" lon="7.25483">
        <ele>316.84</ele>
        <time>2014-01-01T14:39:32.057Z</time>
      </trkpt>
      <trkpt lat="48.74024" lon="7.25487">
        <ele>320.18</ele>
        <time>2014-01-01T14:39:35.055Z</time>
      </trkpt>
      <trkpt lat="48.74013" lon="7.25487">
        <ele>321.26</ele>
        <time>2014-01-01T14:39:37.050Z</time>
      </trkpt>
      <trkpt lat="48.74002" lon="7.25488">
        <ele>318.79</ele>
        <time>2014-01-01T14:39:40.048Z</time>
      </trkpt>
      <trkpt lat="48.7399" lon="7.25486">
        <ele>314.41</ele>
        <time>2014-01-01T14:39:43.021Z</time>
      </trkpt>
      <trkpt lat="48.7398" lon="7.25486">
        <ele>323.77</ele>
        <time>2014-01-01T14:39:46.055Z</time>
      </trkpt>
      <trkpt lat="48.7397" lon="7.25488">
        <ele>320.74</ele>
        <time>2014-01-01T14:39:48.053Z</time>
      </trkpt>
      <trkpt lat="48.73958" lon="7.25491">
        <ele>314.18</ele>
        <time>2014-01-01T14:39:51.043Z</time>
      </trkpt>
      <trkpt lat="48.73948" lon="7.25491">
        <ele>308.82</ele>
        <time>2014-01-01T14:39:53.032Z</time>
      </trkpt>
      <trkpt lat="48.73938" lon="7.25491">
        <ele>306.82</ele>
        <time>2014-01-01T14:39:55.056Z</time>
      </trkpt>
      <trkpt lat="48.73928" lon="7.25491">
        <ele>317.76</ele>
        <time>2014-01-01T14:39:58.046Z</time>
      </trkpt>
      <trkpt lat="48.73913" lon="7.2549">
        <ele>320.24</ele>
        <time>2014-01-01T14:40:01.054Z</time>
      </trkpt>
      <trkpt lat="48.73902" lon="7.25489">
        <ele>322.26</ele>
        <time>2014-01-01T14:40:03.033Z</time>
      </trkpt>
      <trkpt lat="48.73892" lon="7.25487">
        <ele>319.45</ele>
        <time>2014-01-01T14:40:05.045Z</time>
      </trkpt>
      <trkpt lat="48.73882" lon="7.25483">
        <ele>320.5</ele>
        <time>2014-01-01T14:40:07.049Z</time>
      </trkpt>
      <trkpt lat="48.7387" lon="7.25477">
        <ele>320.23</ele>
        <time>2014-01-01T14:40:10.056Z</time>
      </trkpt>
      <trkpt lat="48.73861" lon="7.25472">
        <ele>316.96</ele>
        <time>2014-01-01T14:40:12.044Z</time>
      </trkpt>
      <trkpt lat="48.73851" lon="7.25473">
        <ele>314.94</ele>
        <time>2014-01-01T14:40:14.031Z</time>
      </trkpt>
      <trkpt lat="48.73839" lon="7.25478">
        <ele>313.17</ele>
        <time>2014-01-01T14:40:17.020Z</time>
      </trkpt>
      <trkpt lat="48.7383" lon="7.25485">
        <ele>306.06</ele>
        <time>2014-01-01T14:40:20.048Z</time>
      </trkpt>
      <trkpt lat="48.7382" lon="7.25493">
        <ele>310.15</ele>
        <time>2014-01-01T14:40:23.025Z</time>
      </trkpt>
      <trkpt lat="48.73811" lon="7.255">
        <ele>310.96</ele>
        <time>2014-01-01T14:40:26.042Z</time>
      </trkpt>
      <trkpt lat="48.73803" lon="7.25509">
        <ele>316.22</ele>
        <time>2014-01-01T14:40:32.046Z</time>
      </trkpt>
      <trkpt lat="48.73794" lon="7.25515">
        <ele>315.78</ele>
        <time>2014-01-01T14:40:36.043Z</time>
      </trkpt>
      <trkpt lat="48.73782" lon="7.25523">
        <ele>310.79</ele>
        <time>2014-01-01T14:40:41.038Z</time>
      </trkpt>
      <trkpt lat="48.73774" lon="7.25536">
        <ele>308.64</ele>
        <time>2014-01-01T14:40:45.041Z</time>
      </trkpt>
      <trkpt lat="48.7377" lon="7.2555">
        <ele>311.27</ele>
        <time>2014-01-01T14:40:50.050Z</time>
      </trkpt>
      <trkpt lat="48.73764" lon="7.25562">
        <ele>311.55</ele>
        <time>2014-01-01T14:40:55.043Z</time>
      </trkpt>
      <trkpt lat="48.73754" lon="7.25569">
        <ele>310.6</ele>
        <time>2014-01-01T14:41:00.043Z</time>
      </trkpt>
      <trkpt lat="48.73748" lon="7.25582">
        <ele>313.56</ele>
        <time>2014-01-01T14:41:03.025Z</time>
      </trkpt>
      <trkpt lat="48.7375" lon="7.25599">
        <ele>309.91</ele>
        <time>2014-01-01T14:41:07.042Z</time>
      </trkpt>
      <trkpt lat="48.73745" lon="7.25613">
        <ele>308.41</ele>
        <time>2014-01-01T14:41:10.023Z</time>
      </trkpt>
      <trkpt lat="48.7374" lon="7.25626">
        <ele>302.25</ele>
        <time>2014-01-01T14:41:13.025Z</time>
      </trkpt>
      <trkpt lat="48.73736" lon="7.25643">
        <ele>301.46</ele>
        <time>2014-01-01T14:41:18.041Z</time>
      </trkpt>
      <trkpt lat="48.73738" lon="7.25662">
        <ele>303.47</ele>
        <time>2014-01-01T14:41:23.023Z</time>
      </trkpt>
      <trkpt lat="48.73735" lon="7.2568">
        <ele>308.23</ele>
        <time>2014-01-01T14:41:27.038Z</time>
      </trkpt>
      <trkpt lat="48.7373" lon="7.25697">
        <ele>306.64</ele>
        <time>2014-01-01T14:41:30.032Z</time>
      </trkpt>
      <trkpt lat="48.7373" lon="7.25712">
        <ele>307.28</ele>
        <time>2014-01-01T14:41:33.021Z</time>
      </trkpt>
      <trkpt lat="48.73733" lon="7.25726">
        <ele>309.14</ele>
        <time>2014-01-01T14:41:37.037Z</time>
      </trkpt>
      <trkpt lat="48.7374" lon="7.25741">
        <ele>309.3</ele>
        <time>2014-01-01T14:41:43.020Z</time>
      </trkpt>
      <trkpt lat="48.73746" lon="7.25752">
        <ele>311.28</ele>
        <time>2014-01-01T14:41:48.045Z</time>
      </trkpt>
      <trkpt lat="48.7375" lon="7.25764">
        <ele>313.3</ele>
        <time>2014-01-01T14:41:52.039Z</time>
      </trkpt>
      <trkpt lat="48.73756" lon="7.25776">
        <ele>312.02</ele>
        <time>2014-01-01T14:41:57.037Z</time>
      </trkpt>
      <trkpt lat="48.73765" lon="7.25785">
        <ele>319.88</ele>
        <time>2014-01-01T14:42:02.038Z</time>
      </trkpt>
      <trkpt lat="48.73771" lon="7.25796">
        <ele>305.44</ele>
        <time>2014-01-01T14:42:07.037Z</time>
      </trkpt>
      <trkpt lat="48.73778" lon="7.25805">
        <ele>307.27</ele>
        <time>2014-01-01T14:42:12.040Z</time>
      </trkpt>
      <trkpt lat="48.73786" lon="7.25816">
        <ele>302.3</ele>
        <time>2014-01-01T14:42:15.040Z</time>
      </trkpt>
      <trkpt lat="48.73794" lon="7.25823">
        <ele>303.37</ele>
        <time>2014-01-01T14:42:17.032Z</time>
      </trkpt>
      <trkpt lat="48.73804" lon="7.25832">
        <ele>305.05</ele>
        <time>2014-01-01T14:42:19.029Z</time>
      </trkpt>
      <trkpt lat="48.73813" lon="7.25838">
        <ele>307.64</ele>
        <time>2014-01-01T14:42:21.041Z</time>
      </trkpt>
      <trkpt lat="48.73825" lon="7.25847">
        <ele>311.54</ele>
        <time>2014-01-01T14:42:23.031Z</time>
      </trkpt>
      <trkpt lat="48.73838" lon="7.25856">
        <ele>307.98</ele>
        <time>2014-01-01T14:42:25.039Z</time>
      </trkpt>
      <trkpt lat="48.73847" lon="7.25866">
        <ele>304.75</ele>
        <time>2014-01-01T14:42:27.035Z</time>
      </trkpt>
      <trkpt lat="48.73856" lon="7.25877">
        <ele>301.91</ele>
        <time>2014-01-01T14:42:29.031Z</time>
      </trkpt>
      <trkpt lat="48.73864" lon="7.25888">
        <ele>301.23</ele>
        <time>2014-01-01T14:42:32.043Z</time>
      </trkpt>
      <trkpt lat="48.73873" lon="7.25899">
        <ele>300.61</ele>
        <time>2014-01-01T14:42:35.042Z</time>
      </trkpt>
      <trkpt lat="48.73881" lon="7.25912">
        <ele>300.21</ele>
        <time>2014-01-01T14:42:38.043Z</time>
      </trkpt>
      <trkpt lat="48.73889" lon="7.25923">
        <ele>300.98</ele>
        <time>2014-01-01T14:42:41.038Z</time>
      </trkpt>
      <trkpt lat="48.73898" lon="7.25935">
        <ele>304.21</ele>
        <time>2014-01-01T14:42:44.030Z</time>
      </trkpt>
      <trkpt lat="48.73907" lon="7.25948">
        <ele>302.76</ele>
        <time>2014-01-01T14:42:47.070Z</time>
      </trkpt>
      <trkpt lat="48.73915" lon="7.25961">
        <ele>293.06</ele>
        <time>2014-01-01T14:42:50.046Z</time>
      </trkpt>
      <trkpt lat="48.73924" lon="7.25974">
        <ele>298.55</ele>
        <time>2014-01-01T14:42:53.025Z</time>
      </trkpt>
      <trkpt lat="48.73928" lon="7.25986">
        <ele>304.7</ele>
        <time>2014-01-01T14:42:56.041Z</time>
      </trkpt>
      <trkpt lat="48.73932" lon="7.25998">
        <ele>300.88</ele>
        <time>2014-01-01T14:42:59.031Z</time>
      </trkpt>
      <trkpt lat="48.73938" lon="7.26012">
        <ele>295.16</ele>
        <time>2014-01-01T14:43:03.024Z</time>
      </trkpt>
      <trkpt lat="48.73948" lon="7.26025">
        <ele>289.56</ele>
        <time>2014-01-01T14:43:11.044Z</time>
      </trkpt>
      <trkpt lat="48.73956" lon="7.26033">
        <ele>289.39</ele>
        <time>2014-01-01T14:43:14.034Z</time>
      </trkpt>
      <trkpt lat="48.73968" lon="7.26034">
        <ele>297.26</ele>
        <time>2014-01-01T14:43:17.040Z</time>
      </trkpt>
      <trkpt lat="48.73979" lon="7.26035">
        <ele>294.74</ele>
        <time>2014-01-01T14:43:22.041Z</time>
      </trkpt>
      <trkpt lat="48.73987" lon="7.26045">
        <ele>296.67</ele>
        <time>2014-01-01T14:43:26.039Z</time>
      </trkpt>
      <trkpt lat="48.73994" lon="7.26058">
        <ele>298.21</ele>
        <time>2014-01-01T14:43:30.044Z</time>
      </trkpt>
      <trkpt lat="48.74" lon="7.26072">
        <ele>299.66</ele>
        <time>2014-01-01T14:43:33.025Z</time>
      </trkpt>
      <trkpt lat="48.74008" lon="7.26086">
        <ele>299.35</ele>
        <time>2014-01-01T14:43:36.061Z</time>
      </trkpt>
      <trkpt lat="48.74015" lon="7.26099">
        <ele>302.33</ele>
        <time>2014-01-01T14:43:39.041Z</time>
      </trkpt>
      <trkpt lat="48.74022" lon="7.26109">
        <ele>299.21</ele>
        <time>2014-01-01T14:43:42.058Z</time>
      </trkpt>
      <trkpt lat="48.74029" lon="7.26123">
        <ele>294.8</ele>
        <time>2014-01-01T14:43:46.056Z</time>
      </trkpt>
      <trkpt lat="48.74034" lon="7.26136">
        <ele>296.82</ele>
        <time>2014-01-01T14:43:48.023Z</time>
      </trkpt>
      <trkpt lat="48.74038" lon="7.26149">
        <ele>293.47</ele>
        <time>2014-01-01T14:43:51.023Z</time>
      </trkpt>
      <trkpt lat="48.74042" lon="7.26168">
        <ele>290.48</ele>
        <time>2014-01-01T14:43:54.027Z</time>
      </trkpt>
      <trkpt lat="48.74045" lon="7.26185">
        <ele>289.04</ele>
        <time>2014-01-01T14:43:57.025Z</time>
      </trkpt>
      <trkpt lat="48.74046" lon="7.262">
        <ele>296.68</ele>
        <time>2014-01-01T14:44:00.112Z</time>
      </trkpt>
      <trkpt lat="48.74043" lon="7.26214">
        <ele>295.79</ele>
        <time>2014-01-01T14:44:03.023Z</time>
      </trkpt>
      <trkpt lat="48.7404" lon="7.2623">
        <ele>281.21</ele>
        <time>2014-01-01T14:44:06.052Z</time>
      </trkpt>
      <trkpt lat="48.74039" lon="7.26248">
        <ele>284.79</ele>
        <time>2014-01-01T14:44:10.052Z</time>
      </trkpt>
      <trkpt lat="48.74038" lon="7.26264">
        <ele>287.98</ele>
        <time>2014-01-01T14:44:13.026Z</time>
      </trkpt>
      <trkpt lat="48.74036" lon="7.2628">
        <ele>291.59</ele>
        <time>2014-01-01T14:44:16.040Z</time>
      </trkpt>
      <trkpt lat="48.74033" lon="7.26296">
        <ele>288.25</ele>
        <time>2014-01-01T14:44:20.046Z</time>
      </trkpt>
      <trkpt lat="48.74031" lon="7.26315">
        <ele>296.95</ele>
        <time>2014-01-01T14:44:25.053Z</time>
      </trkpt>
      <trkpt lat="48.74032" lon="7.26332">
        <ele>290.18</ele>
        <time>2014-01-01T14:44:28.046Z</time>
      </trkpt>
      <trkpt lat="48.74034" lon="7.26346">
        <ele>284.26</ele>
        <time>2014-01-01T14:44:31.040Z</time>
      </trkpt>
      <trkpt lat="48.74035" lon="7.26363">
        <ele>289.55</ele>
        <time>2014-01-01T14:44:34.031Z</time>
      </trkpt>
      <trkpt lat="48.74034" lon="7.26377">
        <ele>296.76</ele>
        <time>2014-01-01T14:44:37.044Z</time>
      </trkpt>
      <trkpt lat="48.74034" lon="7.26393">
        <ele>299.91</ele>
        <time>2014-01-01T14:44:41.039Z</time>
      </trkpt>
      <trkpt lat="48.74036" lon="7.26407">
        <ele>293.17</ele>
        <time>2014-01-01T14:44:44.032Z</time>
      </trkpt>
      <trkpt lat="48.74033" lon="7.26424">
        <ele>294.04</ele>
        <time>2014-01-01T14:44:50.046Z</time>
      </trkpt>
      <trkpt lat="48.74029" lon="7.26441">
        <ele>298.83</ele>
        <time>2014-01-01T14:44:53.030Z</time>
      </trkpt>
      <trkpt lat="48.74028" lon="7.26458">
        <ele>303.83</ele>
        <time>2014-01-01T14:44:55.049Z</time>
      </trkpt>
      <trkpt lat="48.74025" lon="7.26473">
        <ele>308.53</ele>
        <time>2014-01-01T14:44:58.044Z</time>
      </trkpt>
      <trkpt lat="48.74023" lon="7.2649">
        <ele>299.95</ele>
        <time>2014-01-01T14:45:02.040Z</time>
      </trkpt>
      <trkpt lat="48.74021" lon="7.26506">
        <ele>292.18</ele>
        <time>2014-01-01T14:45:05.042Z</time>
      </trkpt>
      <trkpt lat="48.74021" lon="7.26521">
        <ele>290.98</ele>
        <time>2014-01-01T14:45:08.044Z</time>
      </trkpt>
      <trkpt lat="48.74018" lon="7.26537">
        <ele>289.44</ele>
        <time>2014-01-01T14:45:12.042Z</time>
      </trkpt>
      <trkpt lat="48.74018" lon="7.26551">
        <ele>286.71</ele>
        <time>2014-01-01T14:45:23.028Z</time>
      </trkpt>
      <trkpt lat="48.74014" lon="7.26568">
        <ele>287.16</ele>
        <time>2014-01-01T14:45:27.049Z</time>
      </trkpt>
      <trkpt lat="48.74011" lon="7.26587">
        <ele>287.65</ele>
        <time>2014-01-01T14:45:30.054Z</time>
      </trkpt>
      <trkpt lat="48.74009" lon="7.26603">
        <ele>288.24</ele>
        <time>2014-01-01T14:45:33.116Z</time>
      </trkpt>
      <trkpt lat="48.74006" lon="7.26617">
        <ele>284.71</ele>
        <time>2014-01-01T14:45:36.048Z</time>
      </trkpt>
      <trkpt lat="48.74005" lon="7.26632">
        <ele>293.07</ele>
        <time>2014-01-01T14:45:40.044Z</time>
      </trkpt>
      <trkpt lat="48.73996" lon="7.26643">
        <ele>293.16</ele>
        <time>2014-01-01T14:45:45.050Z</time>
      </trkpt>
      <trkpt lat="48.73992" lon="7.26657">
        <ele>287.14</ele>
        <time>2014-01-01T14:45:49.025Z</time>
      </trkpt>
      <trkpt lat="48.7399" lon="7.26673">
        <ele>286.14</ele>
        <time>2014-01-01T14:45:54.026Z</time>
      </trkpt>
      <trkpt lat="48.73988" lon="7.26688">
        <ele>278.87</ele>
        <time>2014-01-01T14:45:58.026Z</time>
      </trkpt>
      <trkpt lat="48.73985" lon="7.26704">
        <ele>277.5</ele>
        <time>2014-01-01T14:46:04.022Z</time>
      </trkpt>
      <trkpt lat="48.73983" lon="7.26718">
        <ele>285.43</ele>
        <time>2014-01-01T14:46:07.047Z</time>
      </trkpt>
      <trkpt lat="48.73979" lon="7.26734">
        <ele>295.44</ele>
        <time>2014-01-01T14:46:10.052Z</time>
      </trkpt>
      <trkpt lat="48.73973" lon="7.2675">
        <ele>287.86</ele>
        <time>2014-01-01T14:46:14.042Z</time>
      </trkpt>
      <trkpt lat="48.7397" lon="7.26767">
        <ele>285.26</ele>
        <time>2014-01-01T14:46:19.035Z</time>
      </trkpt>
      <trkpt lat="48.73968" lon="7.26784">
        <ele>297.98</ele>
        <time>2014-01-01T14:46:23.029Z</time>
      </trkpt>
      <trkpt lat="48.73968" lon="7.268">
        <ele>289.6</ele>
        <time>2014-01-01T14:46:26.044Z</time>
      </trkpt>
      <trkpt lat="48.73965" lon="7.26819">
        <ele>292.08</ele>
        <time>2014-01-01T14:46:29.036Z</time>
      </trkpt>
      <trkpt lat="48.73964" lon="7.26833">
        <ele>292.59</ele>
        <time>2014-01-01T14:46:32.047Z</time>
      </trkpt>
      <trkpt lat="48.73963" lon="7.26846">
        <ele>286.59</ele>
        <time>2014-01-01T14:46:35.049Z</time>
      </trkpt>
      <trkpt lat="48.73962" lon="7.26864">
        <ele>284.84</ele>
        <time>2014-01-01T14:46:39.037Z</time>
      </trkpt>
      <trkpt lat="48.73962" lon="7.26879">
        <ele>284.56</ele>
        <time>2014-01-01T14:46:41.045Z</time>
      </trkpt>
      <trkpt lat="48.73962" lon="7.26892">
        <ele>280.78</ele>
        <time>2014-01-01T14:46:43.030Z</time>
      </trkpt>
      <trkpt lat="48.73963" lon="7.26906">
        <ele>286.78</ele>
        <time>2014-01-01T14:46:45.052Z</time>
      </trkpt>
      <trkpt lat="48.73963" lon="7.26922">
        <ele>283.77</ele>
        <time>2014-01-01T14:46:49.040Z</time>
      </trkpt>
      <trkpt lat="48.73963" lon="7.26938">
        <ele>280.1</ele>
        <time>2014-01-01T14:46:53.034Z</time>
      </trkpt>
      <trkpt lat="48.73963" lon="7.26955">
        <ele>279.58</ele>
        <time>2014-01-01T14:46:56.050Z</time>
      </trkpt>
      <trkpt lat="48.73964" lon="7.26971">
        <ele>280.18</ele>
        <time>2014-01-01T14:47:00.051Z</time>
      </trkpt>
      <trkpt lat="48.73967" lon="7.26988">
        <ele>275.64</ele>
        <time>2014-01-01T14:47:06.049Z</time>
      </trkpt>
      <trkpt lat="48.73969" lon="7.27004">
        <ele>287.84</ele>
        <time>2014-01-01T14:47:09.032Z</time>
      </trkpt>
      <trkpt lat="48.73975" lon="7.27019">
        <ele>286.64</ele>
        <time>2014-01-01T14:47:13.043Z</time>
      </trkpt>
      <trkpt lat="48.73979" lon="7.27034">
        <ele>289.56</ele>
        <time>2014-01-01T14:47:16.058Z</time>
      </trkpt>
      <trkpt lat="48.73982" lon="7.2705">
        <ele>294.52</ele>
        <time>2014-01-01T14:47:21.060Z</time>
      </trkpt>
      <trkpt lat="48.73983" lon="7.27066">
        <ele>287.7</ele>
        <time>2014-01-01T14:47:25.065Z</time>
      </trkpt>
      <trkpt lat="48.73984" lon="7.27082">
        <ele>287.2</ele>
        <time>2014-01-01T14:47:28.065Z</time>
      </trkpt>
      <trkpt lat="48.7398" lon="7.27095">
        <ele>284.16</ele>
        <time>2014-01-01T14:47:32.063Z</time>
      </trkpt>
      <trkpt lat="48.73977" lon="7.27111">
        <ele>281.49</ele>
        <time>2014-01-01T14:47:36.064Z</time>
      </trkpt>
      <trkpt lat="48.73976" lon="7.27126">
        <ele>279.71</ele>
        <time>2014-01-01T14:47:39.051Z</time>
      </trkpt>
      <trkpt lat="48.73973" lon="7.27142">
        <ele>283.4</ele>
        <time>2014-01-01T14:47:42.065Z</time>
      </trkpt>
      <trkpt lat="48.7397" lon="7.27156">
        <ele>280.76</ele>
        <time>2014-01-01T14:47:45.064Z</time>
      </trkpt>
      <trkpt lat="48.73967" lon="7.2717">
        <ele>276.63</ele>
        <time>2014-01-01T14:47:48.068Z</time>
      </trkpt>
      <trkpt lat="48.73964" lon="7.27187">
        <ele>278.99</ele>
        <time>2014-01-01T14:47:51.053Z</time>
      </trkpt>
      <trkpt lat="48.7396" lon="7.27205">
        <ele>278.52</ele>
        <time>2014-01-01T14:47:54.035Z</time>
      </trkpt>
      <trkpt lat="48.73955" lon="7.27224">
        <ele>284.26</ele>
        <time>2014-01-01T14:47:57.050Z</time>
      </trkpt>
      <trkpt lat="48.73951" lon="7.27239">
        <ele>280.28</ele>
        <time>2014-01-01T14:47:59.041Z</time>
      </trkpt>
      <trkpt lat="48.73948" lon="7.27253">
        <ele>282.77</ele>
        <time>2014-01-01T14:48:01.053Z</time>
      </trkpt>
      <trkpt lat="48.73945" lon="7.27268">
        <ele>285.04</ele>
        <time>2014-01-01T14:48:03.031Z</time>
      </trkpt>
      <trkpt lat="48.73941" lon="7.27282">
        <ele>289.79</ele>
        <time>2014-01-01T14:48:06.052Z</time>
      </trkpt>
      <trkpt lat="48.73936" lon="7.27297">
        <ele>288.1</ele>
        <time>2014-01-01T14:48:09.035Z</time>
      </trkpt>
      <trkpt lat="48.73938" lon="7.27281">
        <ele>287.77</ele>
        <time>2014-01-01T14:48:23.029Z</time>
      </trkpt>
      <trkpt lat="48.73939" lon="7.27263">
        <ele>283.34</ele>
        <time>2014-01-01T14:48:25.050Z</time>
      </trkpt>
      <trkpt lat="48.73939" lon="7.27243">
        <ele>285.86</ele>
        <time>2014-01-01T14:48:27.044Z</time>
      </trkpt>
      <trkpt lat="48.73939" lon="7.27219">
        <ele>291.05</ele>
        <time>2014-01-01T14:48:29.042Z</time>
      </trkpt>
      <trkpt lat="48.7394" lon="7.27193">
        <ele>291.57</ele>
        <time>2014-01-01T14:48:31.050Z</time>
      </trkpt>
      <trkpt lat="48.7394" lon="7.27167">
        <ele>291.16</ele>
        <time>2014-01-01T14:48:33.030Z</time>
      </trkpt>
      <trkpt lat="48.7394" lon="7.27142">
        <ele>292.64</ele>
        <time>2014-01-01T14:48:35.051Z</time>
      </trkpt>
      <trkpt lat="48.7394" lon="7.27116">
        <ele>296.02</ele>
        <time>2014-01-01T14:48:37.049Z</time>
      </trkpt>
      <trkpt lat="48.73941" lon="7.27093">
        <ele>295.41</ele>
        <time>2014-01-01T14:48:39.038Z</time>
      </trkpt>
      <trkpt lat="48.7394" lon="7.27073">
        <ele>295.45</ele>
        <time>2014-01-01T14:48:41.047Z</time>
      </trkpt>
      <trkpt lat="48.73934" lon="7.27058">
        <ele>292.7</ele>
        <time>2014-01-01T14:48:45.060Z</time>
      </trkpt>
      <trkpt lat="48.7393" lon="7.27045">
        <ele>290.02</ele>
        <time>2014-01-01T14:48:47.046Z</time>
      </trkpt>
      <trkpt lat="48.73925" lon="7.27027">
        <ele>288.28</ele>
        <time>2014-01-01T14:48:49.034Z</time>
      </trkpt>
      <trkpt lat="48.7392" lon="7.27008">
        <ele>285.73</ele>
        <time>2014-01-01T14:48:51.051Z</time>
      </trkpt>
      <trkpt lat="48.73912" lon="7.26984">
        <ele>279.99</ele>
        <time>2014-01-01T14:48:53.038Z</time>
      </trkpt>
      <trkpt lat="48.73909" lon="7.2697">
        <ele>278.78</ele>
        <time>2014-01-01T14:48:54.039Z</time>
      </trkpt>
      <trkpt lat="48.73904" lon="7.26946">
        <ele>273.1</ele>
        <time>2014-01-01T14:48:56.093Z</time>
      </trkpt>
      <trkpt lat="48.73901" lon="7.26926">
        <ele>271.55</ele>
        <time>2014-01-01T14:48:58.100Z</time>
      </trkpt>
      <trkpt lat="48.739" lon="7.26902">
        <ele>261.77</ele>
        <time>2014-01-01T14:49:00.092Z</time>
      </trkpt>
      <trkpt lat="48.73897" lon="7.26875">
        <ele>259.14</ele>
        <time>2014-01-01T14:49:02.041Z</time>
      </trkpt>
      <trkpt lat="48.73893" lon="7.26845">
        <ele>259.21</ele>
        <time>2014-01-01T14:49:04.042Z</time>
      </trkpt>
      <trkpt lat="48.73889" lon="7.26826">
        <ele>257.29</ele>
        <time>2014-01-01T14:49:06.053Z</time>
      </trkpt>
      <trkpt lat="48.73888" lon="7.2681">
        <ele>256.75</ele>
        <time>2014-01-01T14:49:11.056Z</time>
      </trkpt>
      <trkpt lat="48.73888" lon="7.26827">
        <ele>254.17</ele>
        <time>2014-01-01T14:49:27.054Z</time>
      </trkpt>
      <trkpt lat="48.7389" lon="7.26843">
        <ele>255.88</ele>
        <time>2014-01-01T14:49:30.054Z</time>
      </trkpt>
      <trkpt lat="48.73887" lon="7.26861">
        <ele>261.01</ele>
        <time>2014-01-01T14:49:36.051Z</time>
      </trkpt>
      <trkpt lat="48.73885" lon="7.26884">
        <ele>259.54</ele>
        <time>2014-01-01T14:49:39.042Z</time>
      </trkpt>
      <trkpt lat="48.73885" lon="7.26898">
        <ele>261.28</ele>
        <time>2014-01-01T14:49:41.046Z</time>
      </trkpt>
      <trkpt lat="48.73886" lon="7.26914">
        <ele>259.53</ele>
        <time>2014-01-01T14:49:44.056Z</time>
      </trkpt>
      <trkpt lat="48.73886" lon="7.26927">
        <ele>248.31</ele>
        <time>2014-01-01T14:49:47.048Z</time>
      </trkpt>
      <trkpt lat="48.73887" lon="7.26944">
        <ele>247.6</ele>
        <time>2014-01-01T14:49:50.059Z</time>
      </trkpt>
      <trkpt lat="48.73887" lon="7.26961">
        <ele>248.34</ele>
        <time>2014-01-01T14:49:53.036Z</time>
      </trkpt>
      <trkpt lat="48.73886" lon="7.26979">
        <ele>244.47</ele>
        <time>2014-01-01T14:49:56.053Z</time>
      </trkpt>
      <trkpt lat="48.73887" lon="7.26994">
        <ele>231.82</ele>
        <time>2014-01-01T14:49:59.043Z</time>
      </trkpt>
      <trkpt lat="48.73886" lon="7.27012">
        <ele>230.81</ele>
        <time>2014-01-01T14:50:03.045Z</time>
      </trkpt>
      <trkpt lat="48.73886" lon="7.2703">
        <ele>230.62</ele>
        <time>2014-01-01T14:50:06.095Z</time>
      </trkpt>
      <trkpt lat="48.73885" lon="7.27044">
        <ele>231.44</ele>
        <time>2014-01-01T14:50:09.074Z</time>
      </trkpt>
      <trkpt lat="48.73883" lon="7.27061">
        <ele>246.84</ele>
        <time>2014-01-01T14:50:13.068Z</time>
      </trkpt>
      <trkpt lat="48.7388" lon="7.27076">
        <ele>241.4</ele>
        <time>2014-01-01T14:50:16.079Z</time>
      </trkpt>
      <trkpt lat="48.73875" lon="7.27098">
        <ele>239.32</ele>
        <time>2014-01-01T14:50:19.045Z</time>
      </trkpt>
      <trkpt lat="48.7387" lon="7.27115">
        <ele>237.22</ele>
        <time>2014-01-01T14:50:21.065Z</time>
      </trkpt>
      <trkpt lat="48.73864" lon="7.27129">
        <ele>236.2</ele>
        <time>2014-01-01T14:50:23.041Z</time>
      </trkpt>
      <trkpt lat="48.73857" lon="7.27146">
        <ele>241.33</ele>
        <time>2014-01-01T14:50:25.062Z</time>
      </trkpt>
      <trkpt lat="48.73848" lon="7.27163">
        <ele>245.13</ele>
        <time>2014-01-01T14:50:27.063Z</time>
      </trkpt>
      <trkpt lat="48.73841" lon="7.27178">
        <ele>246.08</ele>
        <time>2014-01-01T14:50:29.047Z</time>
      </trkpt>
      <trkpt lat="48.73836" lon="7.27192">
        <ele>239.67</ele>
        <time>2014-01-01T14:50:31.074Z</time>
      </trkpt>
      <trkpt lat="48.7383" lon="7.27206">
        <ele>233.97</ele>
        <time>2014-01-01T14:50:34.056Z</time>
      </trkpt>
      <trkpt lat="48.73821" lon="7.27223">
        <ele>229.88</ele>
        <time>2014-01-01T14:50:37.061Z</time>
      </trkpt>
      <trkpt lat="48.73815" lon="7.27237">
        <ele>229.54</ele>
        <time>2014-01-01T14:50:40.068Z</time>
      </trkpt>
      <trkpt lat="48.73809" lon="7.27248">
        <ele>233.94</ele>
        <time>2014-01-01T14:50:43.044Z</time>
      </trkpt>
      <trkpt lat="48.73803" lon="7.2726">
        <ele>238.91</ele>
        <time>2014-01-01T14:50:59.047Z</time>
      </trkpt>
      <trkpt lat="48.73795" lon="7.27267">
        <ele>239.68</ele>
        <time>2014-01-01T14:51:03.053Z</time>
      </trkpt>
      <trkpt lat="48.73786" lon="7.2728">
        <ele>228.29</ele>
        <time>2014-01-01T14:51:07.060Z</time>
      </trkpt>
      <trkpt lat="48.73779" lon="7.27295">
        <ele>225.36</ele>
        <time>2014-01-01T14:51:10.064Z</time>
      </trkpt>
      <trkpt lat="48.73773" lon="7.27307">
        <ele>225.94</ele>
        <time>2014-01-01T14:51:12.061Z</time>
      </trkpt>
      <trkpt lat="48.73768" lon="7.27321">
        <ele>219.51</ele>
        <time>2014-01-01T14:51:15.066Z</time>
      </trkpt>
      <trkpt lat="48.73763" lon="7.27333">
        <ele>218.33</ele>
        <time>2014-01-01T14:51:18.043Z</time>
      </trkpt>
      <trkpt lat="48.73757" lon="7.27351">
        <ele>218.04</ele>
        <time>2014-01-01T14:51:21.059Z</time>
      </trkpt>
      <trkpt lat="48.73752" lon="7.27365">
        <ele>223.04</ele>
        <time>2014-01-01T14:51:24.048Z</time>
      </trkpt>
      <trkpt lat="48.73744" lon="7.27376">
        <ele>224.63</ele>
        <time>2014-01-01T14:51:27.077Z</time>
      </trkpt>
      <trkpt lat="48.73736" lon="7.27385">
        <ele>225.3</ele>
        <time>2014-01-01T14:51:30.077Z</time>
      </trkpt>
      <trkpt lat="48.73729" lon="7.27396">
        <ele>226.5</ele>
        <time>2014-01-01T14:51:32.065Z</time>
      </trkpt>
      <trkpt lat="48.73723" lon="7.27406">
        <ele>226.93</ele>
        <time>2014-01-01T14:51:34.053Z</time>
      </trkpt>
      <trkpt lat="48.73716" lon="7.27417">
        <ele>227.63</ele>
        <time>2014-01-01T14:51:37.064Z</time>
      </trkpt>
      <trkpt lat="48.73711" lon="7.27432">
        <ele>228.22</ele>
        <time>2014-01-01T14:51:40.063Z</time>
      </trkpt>
      <trkpt lat="48.73704" lon="7.27442">
        <ele>230.27</ele>
        <time>2014-01-01T14:51:43.046Z</time>
      </trkpt>
      <trkpt lat="48.73696" lon="7.27449">
        <ele>227.83</ele>
        <time>2014-01-01T14:51:48.065Z</time>
      </trkpt>
      <trkpt lat="48.73688" lon="7.27461">
        <ele>229.56</ele>
        <time>2014-01-01T14:51:52.067Z</time>
      </trkpt>
      <trkpt lat="48.7368" lon="7.27473">
        <ele>226.97</ele>
        <time>2014-01-01T14:51:56.062Z</time>
      </trkpt>
      <trkpt lat="48.73672" lon="7.27482">
        <ele>233.08</ele>
        <time>2014-01-01T14:51:59.102Z</time>
      </trkpt>
      <trkpt lat="48.73664" lon="7.27494">
        <ele>229.36</ele>
        <time>2014-01-01T14:52:03.042Z</time>
      </trkpt>
      <trkpt lat="48.73656" lon="7.27505">
        <ele>226.14</ele>
        <time>2014-01-01T14:52:06.067Z</time>
      </trkpt>
      <trkpt lat="48.73649" lon="7.27516">
        <ele>229.82</ele>
        <time>2014-01-01T14:52:09.050Z</time>
      </trkpt>
      <trkpt lat="48.73642" lon="7.2753">
        <ele>235.57</ele>
        <time>2014-01-01T14:52:14.053Z</time>
      </trkpt>
      <trkpt lat="48.73633" lon="7.2754">
        <ele>235.94</ele>
        <time>2014-01-01T14:52:17.049Z</time>
      </trkpt>
      <trkpt lat="48.73626" lon="7.2755">
        <ele>237.72</ele>
        <time>2014-01-01T14:52:19.057Z</time>
      </trkpt>
      <trkpt lat="48.73619" lon="7.27558">
        <ele>231.4</ele>
        <time>2014-01-01T14:52:22.065Z</time>
      </trkpt>
      <trkpt lat="48.73611" lon="7.27566">
        <ele>234.95</ele>
        <time>2014-01-01T14:52:25.063Z</time>
      </trkpt>
      <trkpt lat="48.73602" lon="7.27576">
        <ele>235.29</ele>
        <time>2014-01-01T14:52:28.065Z</time>
      </trkpt>
      <trkpt lat="48.73593" lon="7.27586">
        <ele>235.82</ele>
        <time>2014-01-01T14:52:31.059Z</time>
      </trkpt>
      <trkpt lat="48.73585" lon="7.27597">
        <ele>223.31</ele>
        <time>2014-01-01T14:52:34.045Z</time>
      </trkpt>
      <trkpt lat="48.73574" lon="7.2761">
        <ele>231.37</ele>
        <time>2014-01-01T14:52:37.049Z</time>
      </trkpt>
      <trkpt lat="48.73565" lon="7.27619">
        <ele>232.77</ele>
        <time>2014-01-01T14:52:40.057Z</time>
      </trkpt>
      <trkpt lat="48.73555" lon="7.27631">
        <ele>225.12</ele>
        <time>2014-01-01T14:52:42.055Z</time>
      </trkpt>
      <trkpt lat="48.73549" lon="7.27644">
        <ele>220.94</ele>
        <time>2014-01-01T14:52:44.041Z</time>
      </trkpt>
      <trkpt lat="48.73544" lon="7.27662">
        <ele>212.76</ele>
        <time>2014-01-01T14:52:46.055Z</time>
      </trkpt>
      <trkpt lat="48.73541" lon="7.27676">
        <ele>222.36</ele>
        <time>2014-01-01T14:52:48.058Z</time>
      </trkpt>
      <trkpt lat="48.73534" lon="7.27692">
        <ele>223.18</ele>
        <time>2014-01-01T14:52:51.055Z</time>
      </trkpt>
      <trkpt lat="48.73528" lon="7.27702">
        <ele>228.53</ele>
        <time>2014-01-01T14:52:53.039Z</time>
      </trkpt>
      <trkpt lat="48.73522" lon="7.27716">
        <ele>222.99</ele>
        <time>2014-01-01T14:52:55.060Z</time>
      </trkpt>
      <trkpt lat="48.73517" lon="7.27728">
        <ele>224.47</ele>
        <time>2014-01-01T14:52:57.055Z</time>
      </trkpt>
      <trkpt lat="48.7351" lon="7.2774">
        <ele>226.15</ele>
        <time>2014-01-01T14:52:59.047Z</time>
      </trkpt>
      <trkpt lat="48.73504" lon="7.27756">
        <ele>213.14</ele>
        <time>2014-01-01T14:53:02.058Z</time>
      </trkpt>
      <trkpt lat="48.73501" lon="7.27775">
        <ele>209.79</ele>
        <time>2014-01-01T14:53:05.057Z</time>
      </trkpt>
      <trkpt lat="48.735" lon="7.27789">
        <ele>216.36</ele>
        <time>2014-01-01T14:53:07.054Z</time>
      </trkpt>
      <trkpt lat="48.735" lon="7.27804">
        <ele>215.28</ele>
        <time>2014-01-01T14:53:09.046Z</time>
      </trkpt>
      <trkpt lat="48.73496" lon="7.27818">
        <ele>223.9</ele>
        <time>2014-01-01T14:53:14.047Z</time>
      </trkpt>
      <trkpt lat="48.73488" lon="7.27827">
        <ele>221.27</ele>
        <time>2014-01-01T14:53:18.057Z</time>
      </trkpt>
      <trkpt lat="48.73481" lon="7.27836">
        <ele>213.27</ele>
        <time>2014-01-01T14:53:21.031Z</time>
      </trkpt>
      <trkpt lat="48.73475" lon="7.27854">
        <ele>209.56</ele>
        <time>2014-01-01T14:53:24.051Z</time>
      </trkpt>
      <trkpt lat="48.73472" lon="7.27868">
        <ele>208.85</ele>
        <time>2014-01-01T14:53:27.064Z</time>
      </trkpt>
      <trkpt lat="48.73468" lon="7.27885">
        <ele>206.98</ele>
        <time>2014-01-01T14:53:30.072Z</time>
      </trkpt>
      <trkpt lat="48.73466" lon="7.27901">
        <ele>209.28</ele>
        <time>2014-01-01T14:53:33.051Z</time>
      </trkpt>
      <trkpt lat="48.73465" lon="7.27914">
        <ele>203.82</ele>
        <time>2014-01-01T14:53:36.071Z</time>
      </trkpt>
      <trkpt lat="48.73469" lon="7.27934">
        <ele>212.97</ele>
        <time>2014-01-01T14:53:39.054Z</time>
      </trkpt>
      <trkpt lat="48.73467" lon="7.27955">
        <ele>220.84</ele>
        <time>2014-01-01T14:53:44.054Z</time>
      </trkpt>
      <trkpt lat="48.7346" lon="7.27968">
        <ele>220.74</ele>
        <time>2014-01-01T14:53:46.068Z</time>
      </trkpt>
      <trkpt lat="48.73455" lon="7.27982">
        <ele>218.39</ele>
        <time>2014-01-01T14:53:48.070Z</time>
      </trkpt>
      <trkpt lat="48.73448" lon="7.27991">
        <ele>215.55</ele>
        <time>2014-01-01T14:53:52.073Z</time>
      </trkpt>
      <trkpt lat="48.73441" lon="7.28004">
        <ele>218.53</ele>
        <time>2014-01-01T14:53:55.053Z</time>
      </trkpt>
      <trkpt lat="48.73435" lon="7.28015">
        <ele>212.8</ele>
        <time>2014-01-01T14:53:57.053Z</time>
      </trkpt>
      <trkpt lat="48.73428" lon="7.28027">
        <ele>213.25</ele>
        <time>2014-01-01T14:53:59.042Z</time>
      </trkpt>
      <trkpt lat="48.73421" lon="7.2804">
        <ele>205.05</ele>
        <time>2014-01-01T14:54:02.056Z</time>
      </trkpt>
      <trkpt lat="48.73414" lon="7.28054">
        <ele>203.11</ele>
        <time>2014-01-01T14:54:06.061Z</time>
      </trkpt>
      <trkpt lat="48.73409" lon="7.28072">
        <ele>203.26</ele>
        <time>2014-01-01T14:54:09.039Z</time>
      </trkpt>
      <trkpt lat="48.73401" lon="7.28085">
        <ele>208.61</ele>
        <time>2014-01-01T14:54:12.057Z</time>
      </trkpt>
      <trkpt lat="48.73394" lon="7.281">
        <ele>205.04</ele>
        <time>2014-01-01T14:54:15.058Z</time>
      </trkpt>
      <trkpt lat="48.73387" lon="7.28115">
        <ele>199.19</ele>
        <time>2014-01-01T14:54:18.059Z</time>
      </trkpt>
      <trkpt lat="48.73382" lon="7.28128">
        <ele>199.58</ele>
        <time>2014-01-01T14:54:21.055Z</time>
      </trkpt>
      <trkpt lat="48.73383" lon="7.28146">
        <ele>202.77</ele>
        <time>2014-01-01T14:54:25.059Z</time>
      </trkpt>
      <trkpt lat="48.73388" lon="7.28158">
        <ele>204.53</ele>
        <time>2014-01-01T14:54:28.069Z</time>
      </trkpt>
      <trkpt lat="48.73397" lon="7.28162">
        <ele>213.93</ele>
        <time>2014-01-01T14:54:33.055Z</time>
      </trkpt>
      <trkpt lat="48.73406" lon="7.28156">
        <ele>214.87</ele>
        <time>2014-01-01T14:54:38.068Z</time>
      </trkpt>
      <trkpt lat="48.73417" lon="7.28158">
        <ele>217.55</ele>
        <time>2014-01-01T14:54:46.066Z</time>
      </trkpt>
      <trkpt lat="48.73427" lon="7.28155">
        <ele>219.86</ele>
        <time>2014-01-01T14:54:50.068Z</time>
      </trkpt>
      <trkpt lat="48.73437" lon="7.28155">
        <ele>219.34</ele>
        <time>2014-01-01T14:54:53.048Z</time>
      </trkpt>
      <trkpt lat="48.73448" lon="7.28154">
        <ele>215.85</ele>
        <time>2014-01-01T14:54:56.065Z</time>
      </trkpt>
      <trkpt lat="48.73458" lon="7.28155">
        <ele>215.26</ele>
        <time>2014-01-01T14:54:59.055Z</time>
      </trkpt>
      <trkpt lat="48.73469" lon="7.28155">
        <ele>218.88</ele>
        <time>2014-01-01T14:55:02.067Z</time>
      </trkpt>
      <trkpt lat="48.7348" lon="7.28155">
        <ele>221.16</ele>
        <time>2014-01-01T14:55:05.062Z</time>
      </trkpt>
      <trkpt lat="48.7349" lon="7.2816">
        <ele>218.25</ele>
        <time>2014-01-01T14:55:08.066Z</time>
      </trkpt>
      <trkpt lat="48.73499" lon="7.28174">
        <ele>219.92</ele>
        <time>2014-01-01T14:55:11.064Z</time>
      </trkpt>
      <trkpt lat="48.73507" lon="7.2818">
        <ele>218.81</ele>
        <time>2014-01-01T14:55:13.045Z</time>
      </trkpt>
      <trkpt lat="48.73518" lon="7.28187">
        <ele>212.08</ele>
        <time>2014-01-01T14:55:16.081Z</time>
      </trkpt>
      <trkpt lat="48.73529" lon="7.28193">
        <ele>209.01</ele>
        <time>2014-01-01T14:55:19.064Z</time>
      </trkpt>
      <trkpt lat="48.73541" lon="7.28201">
        <ele>209.89</ele>
        <time>2014-01-01T14:55:22.082Z</time>
      </trkpt>
      <trkpt lat="48.73551" lon="7.28206">
        <ele>210.57</ele>
        <time>2014-01-01T14:55:25.085Z</time>
      </trkpt>
      <trkpt lat="48.73563" lon="7.28213">
        <ele>213.45</ele>
        <time>2014-01-01T14:55:28.082Z</time>
      </trkpt>
      <trkpt lat="48.73574" lon="7.28222">
        <ele>213.09</ele>
        <time>2014-01-01T14:55:31.081Z</time>
      </trkpt>
      <trkpt lat="48.73583" lon="7.28235">
        <ele>217.17</ele>
        <time>2014-01-01T14:55:34.073Z</time>
      </trkpt>
      <trkpt lat="48.73594" lon="7.28244">
        <ele>215.23</ele>
        <time>2014-01-01T14:55:37.081Z</time>
      </trkpt>
      <trkpt lat="48.73604" lon="7.28252">
        <ele>213.96</ele>
        <time>2014-01-01T14:55:40.083Z</time>
      </trkpt>
      <trkpt lat="48.73613" lon="7.28259">
        <ele>215.01</ele>
        <time>2014-01-01T14:55:43.066Z</time>
      </trkpt>
      <trkpt lat="48.73625" lon="7.28266">
        <ele>214.72</ele>
        <time>2014-01-01T14:55:46.065Z</time>
      </trkpt>
      <trkpt lat="48.73636" lon="7.28271">
        <ele>214.16</ele>
        <time>2014-01-01T14:55:49.059Z</time>
      </trkpt>
      <trkpt lat="48.73646" lon="7.28273">
        <ele>211.66</ele>
        <time>2014-01-01T14:55:52.070Z</time>
      </trkpt>
      <trkpt lat="48.73657" lon="7.28276">
        <ele>217.13</ele>
        <time>2014-01-01T14:55:56.068Z</time>
      </trkpt>
      <trkpt lat="48.73666" lon="7.28282">
        <ele>212.74</ele>
        <time>2014-01-01T14:55:59.058Z</time>
      </trkpt>
      <trkpt lat="48.73676" lon="7.28291">
        <ele>209.12</ele>
        <time>2014-01-01T14:56:02.066Z</time>
      </trkpt>
      <trkpt lat="48.73684" lon="7.28297">
        <ele>207.11</ele>
        <time>2014-01-01T14:56:05.067Z</time>
      </trkpt>
      <trkpt lat="48.73693" lon="7.28302">
        <ele>211.73</ele>
        <time>2014-01-01T14:56:07.070Z</time>
      </trkpt>
      <trkpt lat="48.73702" lon="7.28307">
        <ele>212.32</ele>
        <time>2014-01-01T14:56:10.068Z</time>
      </trkpt>
      <trkpt lat="48.73714" lon="7.28309">
        <ele>213.85</ele>
        <time>2014-01-01T14:56:13.050Z</time>
      </trkpt>
      <trkpt lat="48.73725" lon="7.28308">
        <ele>214.29</ele>
        <time>2014-01-01T14:56:16.066Z</time>
      </trkpt>
      <trkpt lat="48.73735" lon="7.28307">
        <ele>218.25</ele>
        <time>2014-01-01T14:56:19.058Z</time>
      </trkpt>
      <trkpt lat="48.73744" lon="7.28307">
        <ele>216.61</ele>
        <time>2014-01-01T14:56:21.064Z</time>
      </trkpt>
      <trkpt lat="48.73754" lon="7.28306">
        <ele>214.05</ele>
        <time>2014-01-01T14:56:24.055Z</time>
      </trkpt>
      <trkpt lat="48.73763" lon="7.28304">
        <ele>216.99</ele>
        <time>2014-01-01T14:56:27.063Z</time>
      </trkpt>
      <trkpt lat="48.73773" lon="7.283">
        <ele>221.25</ele>
        <time>2014-01-01T14:56:30.067Z</time>
      </trkpt>
      <trkpt lat="48.73783" lon="7.28299">
        <ele>220.41</ele>
        <time>2014-01-01T14:56:33.049Z</time>
      </trkpt>
      <trkpt lat="48.73795" lon="7.28298">
        <ele>224.65</ele>
        <time>2014-01-01T14:56:37.063Z</time>
      </trkpt>
      <trkpt lat="48.73806" lon="7.28297">
        <ele>230.92</ele>
        <time>2014-01-01T14:56:41.063Z</time>
      </trkpt>
      <trkpt lat="48.73817" lon="7.28296">
        <ele>227.71</ele>
        <time>2014-01-01T14:56:44.055Z</time>
      </trkpt>
      <trkpt lat="48.73826" lon="7.28295">
        <ele>228.64</ele>
        <time>2014-01-01T14:56:47.060Z</time>
      </trkpt>
      <trkpt lat="48.73838" lon="7.28294">
        <ele>226.7</ele>
        <time>2014-01-01T14:56:51.053Z</time>
      </trkpt>
      <trkpt lat="48.73848" lon="7.28295">
        <ele>226.46</ele>
        <time>2014-01-01T14:56:54.046Z</time>
      </trkpt>
      <trkpt lat="48.73859" lon="7.28293">
        <ele>227.27</ele>
        <time>2014-01-01T14:56:57.052Z</time>
      </trkpt>
      <trkpt lat="48.73869" lon="7.28293">
        <ele>225.72</ele>
        <time>2014-01-01T14:57:00.057Z</time>
      </trkpt>
      <trkpt lat="48.73879" lon="7.28293">
        <ele>220.56</ele>
        <time>2014-01-01T14:57:03.046Z</time>
      </trkpt>
      <trkpt lat="48.73888" lon="7.2829">
        <ele>221.27</ele>
        <time>2014-01-01T14:57:06.067Z</time>
      </trkpt>
      <trkpt lat="48.73899" lon="7.28285">
        <ele>230.46</ele>
        <time>2014-01-01T14:57:09.055Z</time>
      </trkpt>
      <trkpt lat="48.73909" lon="7.28279">
        <ele>235.64</ele>
        <time>2014-01-01T14:57:13.055Z</time>
      </trkpt>
      <trkpt lat="48.73921" lon="7.28274">
        <ele>228.91</ele>
        <time>2014-01-01T14:57:16.083Z</time>
      </trkpt>
      <trkpt lat="48.7393" lon="7.28268">
        <ele>228.12</ele>
        <time>2014-01-01T14:57:18.072Z</time>
      </trkpt>
      <trkpt lat="48.73939" lon="7.28264">
        <ele>228.31</ele>
        <time>2014-01-01T14:57:21.068Z</time>
      </trkpt>
      <trkpt lat="48.73951" lon="7.28258">
        <ele>232.78</ele>
        <time>2014-01-01T14:57:24.052Z</time>
      </trkpt>
      <trkpt lat="48.73962" lon="7.2825">
        <ele>233.55</ele>
        <time>2014-01-01T14:57:27.069Z</time>
      </trkpt>
      <trkpt lat="48.73974" lon="7.28244">
        <ele>236.42</ele>
        <time>2014-01-01T14:57:30.055Z</time>
      </trkpt>
      <trkpt lat="48.73983" lon="7.28239">
        <ele>239.61</ele>
        <time>2014-01-01T14:57:32.070Z</time>
      </trkpt>
      <trkpt lat="48.73993" lon="7.28235">
        <ele>236.04</ele>
        <time>2014-01-01T14:57:35.059Z</time>
      </trkpt>
      <trkpt lat="48.74003" lon="7.28231">
        <ele>234.87</ele>
        <time>2014-01-01T14:57:38.056Z</time>
      </trkpt>
      <trkpt lat="48.74015" lon="7.28226">
        <ele>245.23</ele>
        <time>2014-01-01T14:57:41.050Z</time>
      </trkpt>
      <trkpt lat="48.74026" lon="7.28222">
        <ele>249.59</ele>
        <time>2014-01-01T14:57:45.057Z</time>
      </trkpt>
      <trkpt lat="48.74035" lon="7.28217">
        <ele>241.41</ele>
        <time>2014-01-01T14:57:47.050Z</time>
      </trkpt>
      <trkpt lat="48.74045" lon="7.28211">
        <ele>235.29</ele>
        <time>2014-01-01T14:57:50.070Z</time>
      </trkpt>
      <trkpt lat="48.74058" lon="7.28202">
        <ele>235.37</ele>
        <time>2014-01-01T14:57:53.033Z</time>
      </trkpt>
      <trkpt lat="48.74067" lon="7.28197">
        <ele>233.51</ele>
        <time>2014-01-01T14:57:55.070Z</time>
      </trkpt>
      <trkpt lat="48.74076" lon="7.2819">
        <ele>233.57</ele>
        <time>2014-01-01T14:57:58.057Z</time>
      </trkpt>
      <trkpt lat="48.74086" lon="7.28183">
        <ele>238.74</ele>
        <time>2014-01-01T14:58:01.053Z</time>
      </trkpt>
      <trkpt lat="48.74098" lon="7.28175">
        <ele>238.75</ele>
        <time>2014-01-01T14:58:04.037Z</time>
      </trkpt>
      <trkpt lat="48.74107" lon="7.28169">
        <ele>232.26</ele>
        <time>2014-01-01T14:58:07.055Z</time>
      </trkpt>
      <trkpt lat="48.74117" lon="7.28166">
        <ele>231.77</ele>
        <time>2014-01-01T14:58:09.045Z</time>
      </trkpt>
      <trkpt lat="48.74129" lon="7.28164">
        <ele>236.16</ele>
        <time>2014-01-01T14:58:12.062Z</time>
      </trkpt>
      <trkpt lat="48.74141" lon="7.28164">
        <ele>236.78</ele>
        <time>2014-01-01T14:58:15.055Z</time>
      </trkpt>
      <trkpt lat="48.74151" lon="7.28163">
        <ele>232.57</ele>
        <time>2014-01-01T14:58:18.028Z</time>
      </trkpt>
      <trkpt lat="48.7416" lon="7.28159">
        <ele>236.47</ele>
        <time>2014-01-01T14:58:21.045Z</time>
      </trkpt>
      <trkpt lat="48.74171" lon="7.28151">
        <ele>233.06</ele>
        <time>2014-01-01T14:58:24.044Z</time>
      </trkpt>
      <trkpt lat="48.74182" lon="7.28143">
        <ele>233.15</ele>
        <time>2014-01-01T14:58:27.047Z</time>
      </trkpt>
      <trkpt lat="48.74189" lon="7.28134">
        <ele>237.5</ele>
        <time>2014-01-01T14:58:29.056Z</time>
      </trkpt>
      <trkpt lat="48.74197" lon="7.28125">
        <ele>239.3</ele>
        <time>2014-01-01T14:58:32.065Z</time>
      </trkpt>
      <trkpt lat="48.74207" lon="7.28115">
        <ele>241.78</ele>
        <time>2014-01-01T14:58:35.069Z</time>
      </trkpt>
      <trkpt lat="48.74218" lon="7.28109">
        <ele>239.63</ele>
        <time>2014-01-01T14:58:38.068Z</time>
      </trkpt>
      <trkpt lat="48.7423" lon="7.28107">
        <ele>239.83</ele>
        <time>2014-01-01T14:58:41.051Z</time>
      </trkpt>
      <trkpt lat="48.74242" lon="7.28104">
        <ele>246.68</ele>
        <time>2014-01-01T14:58:44.049Z</time>
      </trkpt>
      <trkpt lat="48.74252" lon="7.28098">
        <ele>248.26</ele>
        <time>2014-01-01T14:58:47.050Z</time>
      </trkpt>
      <trkpt lat="48.74263" lon="7.28089">
        <ele>246.44</ele>
        <time>2014-01-01T14:58:50.058Z</time>
      </trkpt>
      <trkpt lat="48.74275" lon="7.2808">
        <ele>245.26</ele>
        <time>2014-01-01T14:58:53.033Z</time>
      </trkpt>
      <trkpt lat="48.74283" lon="7.28072">
        <ele>243.81</ele>
        <time>2014-01-01T14:58:55.061Z</time>
      </trkpt>
      <trkpt lat="48.74292" lon="7.28062">
        <ele>245.51</ele>
        <time>2014-01-01T14:58:57.051Z</time>
      </trkpt>
      <trkpt lat="48.74302" lon="7.28054">
        <ele>244.94</ele>
        <time>2014-01-01T14:58:59.058Z</time>
      </trkpt>
      <trkpt lat="48.74311" lon="7.28047">
        <ele>243.9</ele>
        <time>2014-01-01T14:59:01.056Z</time>
      </trkpt>
      <trkpt lat="48.7432" lon="7.28035">
        <ele>245.46</ele>
        <time>2014-01-01T14:59:04.058Z</time>
      </trkpt>
      <trkpt lat="48.74332" lon="7.28024">
        <ele>239.26</ele>
        <time>2014-01-01T14:59:07.058Z</time>
      </trkpt>
      <trkpt lat="48.7434" lon="7.28016">
        <ele>235.81</ele>
        <time>2014-01-01T14:59:09.045Z</time>
      </trkpt>
      <trkpt lat="48.74351" lon="7.2801">
        <ele>238.35</ele>
        <time>2014-01-01T14:59:12.054Z</time>
      </trkpt>
      <trkpt lat="48.74362" lon="7.28005">
        <ele>239.54</ele>
        <time>2014-01-01T14:59:15.057Z</time>
      </trkpt>
      <trkpt lat="48.74372" lon="7.28001">
        <ele>235.47</ele>
        <time>2014-01-01T14:59:17.070Z</time>
      </trkpt>
      <trkpt lat="48.74383" lon="7.27998">
        <ele>233.82</ele>
        <time>2014-01-01T14:59:19.050Z</time>
      </trkpt>
      <trkpt lat="48.74393" lon="7.27996">
        <ele>238.85</ele>
        <time>2014-01-01T14:59:21.062Z</time>
      </trkpt>
      <trkpt lat="48.74404" lon="7.2799">
        <ele>239.54</ele>
        <time>2014-01-01T14:59:23.053Z</time>
      </trkpt>
      <trkpt lat="48.74414" lon="7.27981">
        <ele>238.66</ele>
        <time>2014-01-01T14:59:26.070Z</time>
      </trkpt>
      <trkpt lat="48.74424" lon="7.27973">
        <ele>239.7</ele>
        <time>2014-01-01T14:59:29.048Z</time>
      </trkpt>
      <trkpt lat="48.74433" lon="7.27967">
        <ele>234.03</ele>
        <time>2014-01-01T14:59:32.061Z</time>
      </trkpt>
      <trkpt lat="48.74444" lon="7.27958">
        <ele>232.38</ele>
        <time>2014-01-01T14:59:35.056Z</time>
      </trkpt>
      <trkpt lat="48.74453" lon="7.2795">
        <ele>233.64</ele>
        <time>2014-01-01T14:59:38.057Z</time>
      </trkpt>
      <trkpt lat="48.74461" lon="7.27943">
        <ele>234.21</ele>
        <time>2014-01-01T14:59:41.062Z</time>
      </trkpt>
      <trkpt lat="48.74471" lon="7.27938">
        <ele>233.47</ele>
        <time>2014-01-01T14:59:45.069Z</time>
      </trkpt>
      <trkpt lat="48.7448" lon="7.27931">
        <ele>236.13</ele>
        <time>2014-01-01T14:59:48.068Z</time>
      </trkpt>
      <trkpt lat="48.74489" lon="7.27923">
        <ele>239.26</ele>
        <time>2014-01-01T14:59:51.058Z</time>
      </trkpt>
      <trkpt lat="48.74499" lon="7.27915">
        <ele>241.45</ele>
        <time>2014-01-01T14:59:54.040Z</time>
      </trkpt>
      <trkpt lat="48.74508" lon="7.27905">
        <ele>247.13</ele>
        <time>2014-01-01T14:59:58.057Z</time>
      </trkpt>
      <trkpt lat="48.74517" lon="7.27895">
        <ele>244.18</ele>
        <time>2014-01-01T15:00:02.055Z</time>
      </trkpt>
      <trkpt lat="48.74528" lon="7.27888">
        <ele>241.35</ele>
        <time>2014-01-01T15:00:06.054Z</time>
      </trkpt>
      <trkpt lat="48.74538" lon="7.27883">
        <ele>240.83</ele>
        <time>2014-01-01T15:00:09.039Z</time>
      </trkpt>
      <trkpt lat="48.74549" lon="7.27878">
        <ele>243.5</ele>
        <time>2014-01-01T15:00:12.079Z</time>
      </trkpt>
      <trkpt lat="48.74559" lon="7.27868">
        <ele>242.43</ele>
        <time>2014-01-01T15:00:15.074Z</time>
      </trkpt>
      <trkpt lat="48.7457" lon="7.27858">
        <ele>243.48</ele>
        <time>2014-01-01T15:00:18.073Z</time>
      </trkpt>
      <trkpt lat="48.74577" lon="7.27848">
        <ele>244.68</ele>
        <time>2014-01-01T15:00:20.081Z</time>
      </trkpt>
      <trkpt lat="48.74587" lon="7.27835">
        <ele>244.37</ele>
        <time>2014-01-01T15:00:23.062Z</time>
      </trkpt>
      <trkpt lat="48.74594" lon="7.27825">
        <ele>247.07</ele>
        <time>2014-01-01T15:00:25.077Z</time>
      </trkpt>
      <trkpt lat="48.74601" lon="7.27816">
        <ele>249.35</ele>
        <time>2014-01-01T15:00:27.074Z</time>
      </trkpt>
      <trkpt lat="48.74612" lon="7.27804">
        <ele>250.82</ele>
        <time>2014-01-01T15:00:30.074Z</time>
      </trkpt>
      <trkpt lat="48.7462" lon="7.27797">
        <ele>247.29</ele>
        <time>2014-01-01T15:00:33.050Z</time>
      </trkpt>
      <trkpt lat="48.7463" lon="7.27791">
        <ele>241.93</ele>
        <time>2014-01-01T15:00:36.069Z</time>
      </trkpt>
      <trkpt lat="48.7464" lon="7.27783">
        <ele>240.87</ele>
        <time>2014-01-01T15:00:39.056Z</time>
      </trkpt>
      <trkpt lat="48.74652" lon="7.2777">
        <ele>245.2</ele>
        <time>2014-01-01T15:00:42.081Z</time>
      </trkpt>
      <trkpt lat="48.74659" lon="7.27758">
        <ele>248.14</ele>
        <time>2014-01-01T15:00:45.082Z</time>
      </trkpt>
      <trkpt lat="48.74666" lon="7.27745">
        <ele>245.88</ele>
        <time>2014-01-01T15:00:48.072Z</time>
      </trkpt>
      <trkpt lat="48.74673" lon="7.27729">
        <ele>261.98</ele>
        <time>2014-01-01T15:00:51.071Z</time>
      </trkpt>
      <trkpt lat="48.74679" lon="7.27716">
        <ele>260.66</ele>
        <time>2014-01-01T15:00:54.177Z</time>
      </trkpt>
      <trkpt lat="48.74687" lon="7.27702">
        <ele>254.81</ele>
        <time>2014-01-01T15:00:57.033Z</time>
      </trkpt>
      <trkpt lat="48.74693" lon="7.27691">
        <ele>253.91</ele>
        <time>2014-01-01T15:00:59.044Z</time>
      </trkpt>
      <trkpt lat="48.747" lon="7.27676">
        <ele>258</ele>
        <time>2014-01-01T15:01:02.078Z</time>
      </trkpt>
      <trkpt lat="48.74707" lon="7.2766">
        <ele>256.13</ele>
        <time>2014-01-01T15:01:05.073Z</time>
      </trkpt>
      <trkpt lat="48.74713" lon="7.27647">
        <ele>260.71</ele>
        <time>2014-01-01T15:01:08.076Z</time>
      </trkpt>
      <trkpt lat="48.74722" lon="7.27635">
        <ele>259.37</ele>
        <time>2014-01-01T15:01:12.067Z</time>
      </trkpt>
      <trkpt lat="48.7473" lon="7.27624">
        <ele>255.51</ele>
        <time>2014-01-01T15:01:15.060Z</time>
      </trkpt>
      <trkpt lat="48.74738" lon="7.27616">
        <ele>256.78</ele>
        <time>2014-01-01T15:01:17.074Z</time>
      </trkpt>
      <trkpt lat="48.74744" lon="7.27605">
        <ele>253.92</ele>
        <time>2014-01-01T15:01:20.075Z</time>
      </trkpt>
      <trkpt lat="48.74748" lon="7.27591">
        <ele>254.79</ele>
        <time>2014-01-01T15:01:23.059Z</time>
      </trkpt>
      <trkpt lat="48.74751" lon="7.27572">
        <ele>248.98</ele>
        <time>2014-01-01T15:01:26.072Z</time>
      </trkpt>
      <trkpt lat="48.74753" lon="7.27558">
        <ele>249.15</ele>
        <time>2014-01-01T15:01:28.076Z</time>
      </trkpt>
      <trkpt lat="48.74759" lon="7.27541">
        <ele>249.55</ele>
        <time>2014-01-01T15:01:31.076Z</time>
      </trkpt>
      <trkpt lat="48.74765" lon="7.27529">
        <ele>249.32</ele>
        <time>2014-01-01T15:01:34.053Z</time>
      </trkpt>
      <trkpt lat="48.74774" lon="7.27515">
        <ele>245.6</ele>
        <time>2014-01-01T15:01:37.077Z</time>
      </trkpt>
      <trkpt lat="48.74784" lon="7.27501">
        <ele>247.99</ele>
        <time>2014-01-01T15:01:40.077Z</time>
      </trkpt>
      <trkpt lat="48.74789" lon="7.2749">
        <ele>247.54</ele>
        <time>2014-01-01T15:01:42.075Z</time>
      </trkpt>
      <trkpt lat="48.74796" lon="7.27477">
        <ele>243.04</ele>
        <time>2014-01-01T15:01:45.073Z</time>
      </trkpt>
      <trkpt lat="48.748" lon="7.2746">
        <ele>242.51</ele>
        <time>2014-01-01T15:01:48.074Z</time>
      </trkpt>
      <trkpt lat="48.74805" lon="7.27444">
        <ele>243.8</ele>
        <time>2014-01-01T15:01:50.078Z</time>
      </trkpt>
      <trkpt lat="48.74809" lon="7.27429">
        <ele>244.69</ele>
        <time>2014-01-01T15:01:52.078Z</time>
      </trkpt>
      <trkpt lat="48.74816" lon="7.27414">
        <ele>247.76</ele>
        <time>2014-01-01T15:01:54.059Z</time>
      </trkpt>
      <trkpt lat="48.74819" lon="7.27398">
        <ele>249.42</ele>
        <time>2014-01-01T15:01:56.076Z</time>
      </trkpt>
      <trkpt lat="48.74823" lon="7.27385">
        <ele>245.92</ele>
        <time>2014-01-01T15:01:58.069Z</time>
      </trkpt>
      <trkpt lat="48.7483" lon="7.27368">
        <ele>243.62</ele>
        <time>2014-01-01T15:02:01.061Z</time>
      </trkpt>
      <trkpt lat="48.74838" lon="7.27351">
        <ele>245.07</ele>
        <time>2014-01-01T15:02:04.055Z</time>
      </trkpt>
      <trkpt lat="48.74846" lon="7.27336">
        <ele>245.65</ele>
        <time>2014-01-01T15:02:07.073Z</time>
      </trkpt>
      <trkpt lat="48.74855" lon="7.27321">
        <ele>245.71</ele>
        <time>2014-01-01T15:02:10.077Z</time>
      </trkpt>
      <trkpt lat="48.74865" lon="7.27305">
        <ele>246.33</ele>
        <time>2014-01-01T15:02:13.054Z</time>
      </trkpt>
      <trkpt lat="48.7487" lon="7.27294">
        <ele>249.17</ele>
        <time>2014-01-01T15:02:15.069Z</time>
      </trkpt>
      <trkpt lat="48.74877" lon="7.27283">
        <ele>252.83</ele>
        <time>2014-01-01T15:02:17.077Z</time>
      </trkpt>
      <trkpt lat="48.74886" lon="7.27269">
        <ele>255.3</ele>
        <time>2014-01-01T15:02:20.079Z</time>
      </trkpt>
      <trkpt lat="48.74895" lon="7.27255">
        <ele>253</ele>
        <time>2014-01-01T15:02:23.058Z</time>
      </trkpt>
      <trkpt lat="48.74904" lon="7.27241">
        <ele>250.17</ele>
        <time>2014-01-01T15:02:26.073Z</time>
      </trkpt>
      <trkpt lat="48.74913" lon="7.27227">
        <ele>250.52</ele>
        <time>2014-01-01T15:02:29.057Z</time>
      </trkpt>
      <trkpt lat="48.74922" lon="7.27214">
        <ele>249.5</ele>
        <time>2014-01-01T15:02:32.063Z</time>
      </trkpt>
      <trkpt lat="48.7493" lon="7.27207">
        <ele>249.83</ele>
        <time>2014-01-01T15:02:34.057Z</time>
      </trkpt>
      <trkpt lat="48.74941" lon="7.27196">
        <ele>252.54</ele>
        <time>2014-01-01T15:02:37.064Z</time>
      </trkpt>
      <trkpt lat="48.74951" lon="7.27185">
        <ele>252.79</ele>
        <time>2014-01-01T15:02:40.074Z</time>
      </trkpt>
      <trkpt lat="48.74962" lon="7.27174">
        <ele>254.64</ele>
        <time>2014-01-01T15:02:43.059Z</time>
      </trkpt>
      <trkpt lat="48.74971" lon="7.27162">
        <ele>256.71</ele>
        <time>2014-01-01T15:02:46.076Z</time>
      </trkpt>
      <trkpt lat="48.7498" lon="7.27149">
        <ele>247.37</ele>
        <time>2014-01-01T15:02:49.058Z</time>
      </trkpt>
      <trkpt lat="48.74989" lon="7.27137">
        <ele>246.85</ele>
        <time>2014-01-01T15:02:52.111Z</time>
      </trkpt>
      <trkpt lat="48.74998" lon="7.27123">
        <ele>251.39</ele>
        <time>2014-01-01T15:02:55.042Z</time>
      </trkpt>
      <trkpt lat="48.75005" lon="7.27111">
        <ele>255.2</ele>
        <time>2014-01-01T15:02:57.039Z</time>
      </trkpt>
      <trkpt lat="48.75013" lon="7.27093">
        <ele>252.51</ele>
        <time>2014-01-01T15:03:00.136Z</time>
      </trkpt>
      <trkpt lat="48.75019" lon="7.27081">
        <ele>250.08</ele>
        <time>2014-01-01T15:03:03.040Z</time>
      </trkpt>
      <trkpt lat="48.75026" lon="7.27067">
        <ele>251.53</ele>
        <time>2014-01-01T15:03:06.036Z</time>
      </trkpt>
      <trkpt lat="48.75033" lon="7.27057">
        <ele>251.51</ele>
        <time>2014-01-01T15:03:08.040Z</time>
      </trkpt>
      <trkpt lat="48.75043" lon="7.27044">
        <ele>254.01</ele>
        <time>2014-01-01T15:03:11.071Z</time>
      </trkpt>
      <trkpt lat="48.75053" lon="7.2703">
        <ele>254.93</ele>
        <time>2014-01-01T15:03:14.055Z</time>
      </trkpt>
      <trkpt lat="48.7506" lon="7.27018">
        <ele>255.34</ele>
        <time>2014-01-01T15:03:16.063Z</time>
      </trkpt>
      <trkpt lat="48.75067" lon="7.27004">
        <ele>255.17</ele>
        <time>2014-01-01T15:03:19.055Z</time>
      </trkpt>
      <trkpt lat="48.75073" lon="7.26992">
        <ele>260.97</ele>
        <time>2014-01-01T15:03:22.076Z</time>
      </trkpt>
      <trkpt lat="48.75068" lon="7.26973">
        <ele>283.43</ele>
        <time>2014-01-01T15:03:53.048Z</time>
      </trkpt>
      <trkpt lat="48.75063" lon="7.26986">
        <ele>270.73</ele>
        <time>2014-01-01T15:04:26.040Z</time>
      </trkpt>
      <trkpt lat="48.7506" lon="7.26999">
        <ele>271.57</ele>
        <time>2014-01-01T15:04:35.295Z</time>
      </trkpt>
      <trkpt lat="48.75068" lon="7.26985">
        <ele>278.82</ele>
        <time>2014-01-01T15:05:23.074Z</time>
      </trkpt>
      <trkpt lat="48.75079" lon="7.26979">
        <ele>276.99</ele>
        <time>2014-01-01T15:05:26.051Z</time>
      </trkpt>
      <trkpt lat="48.75089" lon="7.26978">
        <ele>276.97</ele>
        <time>2014-01-01T15:05:29.060Z</time>
      </trkpt>
      <trkpt lat="48.75098" lon="7.26973">
        <ele>282.8</ele>
        <time>2014-01-01T15:05:32.073Z</time>
      </trkpt>
      <trkpt lat="48.75109" lon="7.26968">
        <ele>277.04</ele>
        <time>2014-01-01T15:05:35.075Z</time>
      </trkpt>
      <trkpt lat="48.75119" lon="7.26965">
        <ele>272.77</ele>
        <time>2014-01-01T15:05:37.072Z</time>
      </trkpt>
      <trkpt lat="48.75129" lon="7.26962">
        <ele>270.34</ele>
        <time>2014-01-01T15:05:40.074Z</time>
      </trkpt>
      <trkpt lat="48.75138" lon="7.26957">
        <ele>272.57</ele>
        <time>2014-01-01T15:05:43.075Z</time>
      </trkpt>
      <trkpt lat="48.75147" lon="7.26952">
        <ele>283.54</ele>
        <time>2014-01-01T15:05:47.075Z</time>
      </trkpt>
      <trkpt lat="48.75157" lon="7.26948">
        <ele>276.16</ele>
        <time>2014-01-01T15:05:52.077Z</time>
      </trkpt>
      <trkpt lat="48.75166" lon="7.26942">
        <ele>278.47</ele>
        <time>2014-01-01T15:05:56.058Z</time>
      </trkpt>
      <trkpt lat="48.75175" lon="7.26938">
        <ele>281.61</ele>
        <time>2014-01-01T15:05:59.061Z</time>
      </trkpt>
      <trkpt lat="48.75185" lon="7.26932">
        <ele>284.09</ele>
        <time>2014-01-01T15:06:03.077Z</time>
      </trkpt>
      <trkpt lat="48.75195" lon="7.26929">
        <ele>280.3</ele>
        <time>2014-01-01T15:06:12.077Z</time>
      </trkpt>
      <trkpt lat="48.75205" lon="7.26926">
        <ele>277.01</ele>
        <time>2014-01-01T15:06:16.053Z</time>
      </trkpt>
      <trkpt lat="48.75215" lon="7.2692">
        <ele>274.14</ele>
        <time>2014-01-01T15:06:22.081Z</time>
      </trkpt>
      <trkpt lat="48.75225" lon="7.26913">
        <ele>272.56</ele>
        <time>2014-01-01T15:06:29.059Z</time>
      </trkpt>
      <trkpt lat="48.75234" lon="7.26905">
        <ele>278.86</ele>
        <time>2014-01-01T15:06:35.089Z</time>
      </trkpt>
      <trkpt lat="48.75244" lon="7.26902">
        <ele>291.22</ele>
        <time>2014-01-01T15:06:39.067Z</time>
      </trkpt>
      <trkpt lat="48.75254" lon="7.269">
        <ele>291.76</ele>
        <time>2014-01-01T15:06:47.077Z</time>
      </trkpt>
      <trkpt lat="48.75263" lon="7.26898">
        <ele>307.24</ele>
        <time>2014-01-01T15:06:54.064Z</time>
      </trkpt>
      <trkpt lat="48.75273" lon="7.26892">
        <ele>295.44</ele>
        <time>2014-01-01T15:06:58.080Z</time>
      </trkpt>
      <trkpt lat="48.75281" lon="7.26883">
        <ele>309.22</ele>
        <time>2014-01-01T15:07:09.067Z</time>
      </trkpt>
      <trkpt lat="48.7529" lon="7.26877">
        <ele>300.03</ele>
        <time>2014-01-01T15:07:14.064Z</time>
      </trkpt>
      <trkpt lat="48.75299" lon="7.2687">
        <ele>292.5</ele>
        <time>2014-01-01T15:07:18.079Z</time>
      </trkpt>
      <trkpt lat="48.75309" lon="7.26862">
        <ele>295.75</ele>
        <time>2014-01-01T15:07:24.064Z</time>
      </trkpt>
      <trkpt lat="48.75317" lon="7.26855">
        <ele>293.81</ele>
        <time>2014-01-01T15:07:33.068Z</time>
      </trkpt>
      <trkpt lat="48.75326" lon="7.26848">
        <ele>286.29</ele>
        <time>2014-01-01T15:07:39.064Z</time>
      </trkpt>
      <trkpt lat="48.75334" lon="7.2684">
        <ele>291.22</ele>
        <time>2014-01-01T15:07:43.070Z</time>
      </trkpt>
      <trkpt lat="48.75344" lon="7.26833">
        <ele>285.01</ele>
        <time>2014-01-01T15:07:50.073Z</time>
      </trkpt>
      <trkpt lat="48.75352" lon="7.26826">
        <ele>289.66</ele>
        <time>2014-01-01T15:07:55.074Z</time>
      </trkpt>
      <trkpt lat="48.7536" lon="7.26819">
        <ele>281.8</ele>
        <time>2014-01-01T15:08:01.072Z</time>
      </trkpt>
      <trkpt lat="48.75368" lon="7.26812">
        <ele>287.23</ele>
        <time>2014-01-01T15:08:06.056Z</time>
      </trkpt>
      <trkpt lat="48.75376" lon="7.26804">
        <ele>291.48</ele>
        <time>2014-01-01T15:08:10.070Z</time>
      </trkpt>
      <trkpt lat="48.75386" lon="7.26798">
        <ele>299.25</ele>
        <time>2014-01-01T15:08:18.076Z</time>
      </trkpt>
      <trkpt lat="48.75396" lon="7.26795">
        <ele>310.39</ele>
        <time>2014-01-01T15:08:26.048Z</time>
      </trkpt>
      <trkpt lat="48.75409" lon="7.26788">
        <ele>317.15</ele>
        <time>2014-01-01T15:08:32.076Z</time>
      </trkpt>
      <trkpt lat="48.75418" lon="7.26782">
        <ele>304.21</ele>
        <time>2014-01-01T15:08:34.058Z</time>
      </trkpt>
      <trkpt lat="48.75427" lon="7.26776">
        <ele>290.04</ele>
        <time>2014-01-01T15:08:37.070Z</time>
      </trkpt>
      <trkpt lat="48.75435" lon="7.26769">
        <ele>299.16</ele>
        <time>2014-01-01T15:08:43.074Z</time>
      </trkpt>
      <trkpt lat="48.75443" lon="7.26761">
        <ele>291.56</ele>
        <time>2014-01-01T15:08:47.075Z</time>
      </trkpt>
      <trkpt lat="48.75451" lon="7.26754">
        <ele>300.85</ele>
        <time>2014-01-01T15:08:52.076Z</time>
      </trkpt>
      <trkpt lat="48.75462" lon="7.26744">
        <ele>304.7</ele>
        <time>2014-01-01T15:08:59.058Z</time>
      </trkpt>
      <trkpt lat="48.75471" lon="7.26736">
        <ele>306.09</ele>
        <time>2014-01-01T15:09:06.054Z</time>
      </trkpt>
      <trkpt lat="48.75481" lon="7.26729">
        <ele>298.61</ele>
        <time>2014-01-01T15:09:10.077Z</time>
      </trkpt>
      <trkpt lat="48.75492" lon="7.26724">
        <ele>283.05</ele>
        <time>2014-01-01T15:09:13.076Z</time>
      </trkpt>
      <trkpt lat="48.75502" lon="7.26719">
        <ele>273.96</ele>
        <time>2014-01-01T15:09:16.054Z</time>
      </trkpt>
      <trkpt lat="48.75511" lon="7.26714">
        <ele>280.88</ele>
        <time>2014-01-01T15:09:19.065Z</time>
      </trkpt>
      <trkpt lat="48.7552" lon="7.26707">
        <ele>284.63</ele>
        <time>2014-01-01T15:09:24.060Z</time>
      </trkpt>
      <trkpt lat="48.75528" lon="7.267">
        <ele>288.07</ele>
        <time>2014-01-01T15:09:27.077Z</time>
      </trkpt>
      <trkpt lat="48.75536" lon="7.26692">
        <ele>284.21</ele>
        <time>2014-01-01T15:09:30.073Z</time>
      </trkpt>
      <trkpt lat="48.75543" lon="7.26682">
        <ele>284.75</ele>
        <time>2014-01-01T15:09:35.073Z</time>
      </trkpt>
      <trkpt lat="48.7555" lon="7.26672">
        <ele>284.04</ele>
        <time>2014-01-01T15:09:38.078Z</time>
      </trkpt>
      <trkpt lat="48.75557" lon="7.26659">
        <ele>283.11</ele>
        <time>2014-01-01T15:09:42.036Z</time>
      </trkpt>
      <trkpt lat="48.75562" lon="7.26645">
        <ele>291.95</ele>
        <time>2014-01-01T15:09:47.078Z</time>
      </trkpt>
      <trkpt lat="48.75566" lon="7.26631">
        <ele>289.35</ele>
        <time>2014-01-01T15:09:51.074Z</time>
      </trkpt>
      <trkpt lat="48.75568" lon="7.26617">
        <ele>291.52</ele>
        <time>2014-01-01T15:09:55.038Z</time>
      </trkpt>
      <trkpt lat="48.75567" lon="7.26602">
        <ele>283.66</ele>
        <time>2014-01-01T15:10:01.077Z</time>
      </trkpt>
      <trkpt lat="48.7557" lon="7.26587">
        <ele>281.06</ele>
        <time>2014-01-01T15:10:05.074Z</time>
      </trkpt>
      <trkpt lat="48.75571" lon="7.26571">
        <ele>286.96</ele>
        <time>2014-01-01T15:10:09.058Z</time>
      </trkpt>
      <trkpt lat="48.75576" lon="7.26558">
        <ele>298.73</ele>
        <time>2014-01-01T15:10:15.076Z</time>
      </trkpt>
      <trkpt lat="48.75582" lon="7.26546">
        <ele>298.21</ele>
        <time>2014-01-01T15:10:19.055Z</time>
      </trkpt>
      <trkpt lat="48.7559" lon="7.26536">
        <ele>293.11</ele>
        <time>2014-01-01T15:10:23.047Z</time>
      </trkpt>
      <trkpt lat="48.75598" lon="7.26528">
        <ele>297.65</ele>
        <time>2014-01-01T15:10:26.050Z</time>
      </trkpt>
      <trkpt lat="48.75608" lon="7.26523">
        <ele>296.93</ele>
        <time>2014-01-01T15:10:31.074Z</time>
      </trkpt>
      <trkpt lat="48.75617" lon="7.26516">
        <ele>299.22</ele>
        <time>2014-01-01T15:10:38.072Z</time>
      </trkpt>
      <trkpt lat="48.75608" lon="7.26514">
        <ele>313.14</ele>
        <time>2014-01-01T15:10:50.075Z</time>
      </trkpt>
      <trkpt lat="48.75598" lon="7.2652">
        <ele>307.68</ele>
        <time>2014-01-01T15:10:55.075Z</time>
      </trkpt>
      <trkpt lat="48.75588" lon="7.26527">
        <ele>298.1</ele>
        <time>2014-01-01T15:11:02.076Z</time>
      </trkpt>
      <trkpt lat="48.75577" lon="7.26534">
        <ele>304.57</ele>
        <time>2014-01-01T15:11:07.073Z</time>
      </trkpt>
      <trkpt lat="48.7557" lon="7.26542">
        <ele>302.69</ele>
        <time>2014-01-01T15:11:12.075Z</time>
      </trkpt>
      <trkpt lat="48.75561" lon="7.26548">
        <ele>305.38</ele>
        <time>2014-01-01T15:11:16.053Z</time>
      </trkpt>
      <trkpt lat="48.75552" lon="7.26551">
        <ele>313.2</ele>
        <time>2014-01-01T15:11:22.073Z</time>
      </trkpt>
      <trkpt lat="48.75542" lon="7.26556">
        <ele>316.23</ele>
        <time>2014-01-01T15:11:27.074Z</time>
      </trkpt>
      <trkpt lat="48.75534" lon="7.26564">
        <ele>306.08</ele>
        <time>2014-01-01T15:11:33.075Z</time>
      </trkpt>
      <trkpt lat="48.75526" lon="7.26572">
        <ele>316.37</ele>
        <time>2014-01-01T15:11:39.058Z</time>
      </trkpt>
      <trkpt lat="48.75518" lon="7.2658">
        <ele>314.31</ele>
        <time>2014-01-01T15:11:45.078Z</time>
      </trkpt>
      <trkpt lat="48.75511" lon="7.2659">
        <ele>319.98</ele>
        <time>2014-01-01T15:11:52.076Z</time>
      </trkpt>
      <trkpt lat="48.75502" lon="7.26599">
        <ele>322.35</ele>
        <time>2014-01-01T15:12:00.073Z</time>
      </trkpt>
      <trkpt lat="48.75495" lon="7.26608">
        <ele>318.5</ele>
        <time>2014-01-01T15:12:05.109Z</time>
      </trkpt>
      <trkpt lat="48.75489" lon="7.26619">
        <ele>311.67</ele>
        <time>2014-01-01T15:12:14.059Z</time>
      </trkpt>
      <trkpt lat="48.75482" lon="7.26631">
        <ele>316.91</ele>
        <time>2014-01-01T15:12:20.079Z</time>
      </trkpt>
      <trkpt lat="48.75474" lon="7.26639">
        <ele>311.91</ele>
        <time>2014-01-01T15:12:24.061Z</time>
      </trkpt>
      <trkpt lat="48.75465" lon="7.26645">
        <ele>319.05</ele>
        <time>2014-01-01T15:12:28.078Z</time>
      </trkpt>
      <trkpt lat="48.75455" lon="7.26651">
        <ele>319.51</ele>
        <time>2014-01-01T15:12:34.060Z</time>
      </trkpt>
      <trkpt lat="48.75447" lon="7.26658">
        <ele>320.3</ele>
        <time>2014-01-01T15:12:39.060Z</time>
      </trkpt>
      <trkpt lat="48.75437" lon="7.26662">
        <ele>322.86</ele>
        <time>2014-01-01T15:12:45.075Z</time>
      </trkpt>
      <trkpt lat="48.75427" lon="7.26664">
        <ele>317.21</ele>
        <time>2014-01-01T15:12:50.073Z</time>
      </trkpt>
      <trkpt lat="48.75418" lon="7.26663">
        <ele>322.92</ele>
        <time>2014-01-01T15:12:55.079Z</time>
      </trkpt>
      <trkpt lat="48.75407" lon="7.26666">
        <ele>320.41</ele>
        <time>2014-01-01T15:13:02.078Z</time>
      </trkpt>
      <trkpt lat="48.75397" lon="7.26668">
        <ele>327.2</ele>
        <time>2014-01-01T15:13:07.074Z</time>
      </trkpt>
      <trkpt lat="48.75387" lon="7.26671">
        <ele>328.74</ele>
        <time>2014-01-01T15:13:13.077Z</time>
      </trkpt>
      <trkpt lat="48.75377" lon="7.26673">
        <ele>324.99</ele>
        <time>2014-01-01T15:13:19.066Z</time>
      </trkpt>
      <trkpt lat="48.75368" lon="7.26676">
        <ele>328.36</ele>
        <time>2014-01-01T15:13:24.065Z</time>
      </trkpt>
      <trkpt lat="48.75358" lon="7.26681">
        <ele>330.23</ele>
        <time>2014-01-01T15:13:29.060Z</time>
      </trkpt>
      <trkpt lat="48.75349" lon="7.26686">
        <ele>331.33</ele>
        <time>2014-01-01T15:13:35.079Z</time>
      </trkpt>
      <trkpt lat="48.7534" lon="7.26688">
        <ele>333.3</ele>
        <time>2014-01-01T15:13:41.073Z</time>
      </trkpt>
      <trkpt lat="48.75329" lon="7.2669">
        <ele>321.44</ele>
        <time>2014-01-01T15:13:46.054Z</time>
      </trkpt>
      <trkpt lat="48.7532" lon="7.26695">
        <ele>323.71</ele>
        <time>2014-01-01T15:13:52.076Z</time>
      </trkpt>
      <trkpt lat="48.7531" lon="7.26695">
        <ele>327.92</ele>
        <time>2014-01-01T15:13:58.074Z</time>
      </trkpt>
      <trkpt lat="48.753" lon="7.26689">
        <ele>329.51</ele>
        <time>2014-01-01T15:14:05.074Z</time>
      </trkpt>
      <trkpt lat="48.75292" lon="7.26681">
        <ele>331.88</ele>
        <time>2014-01-01T15:14:13.079Z</time>
      </trkpt>
      <trkpt lat="48.75282" lon="7.26678">
        <ele>332.32</ele>
        <time>2014-01-01T15:14:38.080Z</time>
      </trkpt>
      <trkpt lat="48.75273" lon="7.26679">
        <ele>332.64</ele>
        <time>2014-01-01T15:14:47.075Z</time>
      </trkpt>
      <trkpt lat="48.75264" lon="7.26676">
        <ele>338.56</ele>
        <time>2014-01-01T15:14:55.081Z</time>
      </trkpt>
      <trkpt lat="48.75254" lon="7.2668">
        <ele>334.96</ele>
        <time>2014-01-01T15:15:03.078Z</time>
      </trkpt>
      <trkpt lat="48.75243" lon="7.2668">
        <ele>339.09</ele>
        <time>2014-01-01T15:15:12.078Z</time>
      </trkpt>
      <trkpt lat="48.75234" lon="7.26683">
        <ele>335.89</ele>
        <time>2014-01-01T15:15:20.077Z</time>
      </trkpt>
      <trkpt lat="48.75222" lon="7.26684">
        <ele>340.27</ele>
        <time>2014-01-01T15:15:27.075Z</time>
      </trkpt>
      <trkpt lat="48.75213" lon="7.26686">
        <ele>342.7</ele>
        <time>2014-01-01T15:15:33.080Z</time>
      </trkpt>
      <trkpt lat="48.75203" lon="7.26689">
        <ele>336.22</ele>
        <time>2014-01-01T15:15:40.075Z</time>
      </trkpt>
      <trkpt lat="48.75195" lon="7.26679">
        <ele>338.17</ele>
        <time>2014-01-01T15:15:48.074Z</time>
      </trkpt>
      <trkpt lat="48.75195" lon="7.26665">
        <ele>334.91</ele>
        <time>2014-01-01T15:15:53.078Z</time>
      </trkpt>
      <trkpt lat="48.75196" lon="7.2665">
        <ele>335.44</ele>
        <time>2014-01-01T15:16:00.072Z</time>
      </trkpt>
      <trkpt lat="48.75196" lon="7.26635">
        <ele>335.6</ele>
        <time>2014-01-01T15:16:06.054Z</time>
      </trkpt>
      <trkpt lat="48.75191" lon="7.26624">
        <ele>341.19</ele>
        <time>2014-01-01T15:16:11.075Z</time>
      </trkpt>
      <trkpt lat="48.75186" lon="7.26611">
        <ele>340.91</ele>
        <time>2014-01-01T15:16:18.078Z</time>
      </trkpt>
      <trkpt lat="48.75181" lon="7.26597">
        <ele>343.81</ele>
        <time>2014-01-01T15:16:24.062Z</time>
      </trkpt>
      <trkpt lat="48.75178" lon="7.26581">
        <ele>343.29</ele>
        <time>2014-01-01T15:16:31.076Z</time>
      </trkpt>
      <trkpt lat="48.75176" lon="7.26567">
        <ele>348.91</ele>
        <time>2014-01-01T15:16:37.078Z</time>
      </trkpt>
      <trkpt lat="48.75173" lon="7.26554">
        <ele>348.23</ele>
        <time>2014-01-01T15:16:43.077Z</time>
      </trkpt>
      <trkpt lat="48.75171" lon="7.2654">
        <ele>348.75</ele>
        <time>2014-01-01T15:16:49.067Z</time>
      </trkpt>
      <trkpt lat="48.75169" lon="7.26525">
        <ele>346.23</ele>
        <time>2014-01-01T15:16:57.077Z</time>
      </trkpt>
      <trkpt lat="48.7517" lon="7.26511">
        <ele>345.53</ele>
        <time>2014-01-01T15:17:03.079Z</time>
      </trkpt>
      <trkpt lat="48.75177" lon="7.26502">
        <ele>348</ele>
        <time>2014-01-01T15:17:08.076Z</time>
      </trkpt>
      <trkpt lat="48.75187" lon="7.26502">
        <ele>348.13</ele>
        <time>2014-01-01T15:17:14.065Z</time>
      </trkpt>
      <trkpt lat="48.75198" lon="7.26502">
        <ele>350.41</ele>
        <time>2014-01-01T15:17:20.081Z</time>
      </trkpt>
      <trkpt lat="48.75207" lon="7.26502">
        <ele>352.5</ele>
        <time>2014-01-01T15:17:26.054Z</time>
      </trkpt>
      <trkpt lat="48.75217" lon="7.26501">
        <ele>350.88</ele>
        <time>2014-01-01T15:17:31.076Z</time>
      </trkpt>
      <trkpt lat="48.75227" lon="7.26501">
        <ele>352.11</ele>
        <time>2014-01-01T15:17:36.053Z</time>
      </trkpt>
      <trkpt lat="48.75236" lon="7.265">
        <ele>352.9</ele>
        <time>2014-01-01T15:17:41.072Z</time>
      </trkpt>
      <trkpt lat="48.75246" lon="7.26495">
        <ele>350.6</ele>
        <time>2014-01-01T15:17:46.057Z</time>
      </trkpt>
      <trkpt lat="48.75255" lon="7.26496">
        <ele>350.01</ele>
        <time>2014-01-01T15:17:50.089Z</time>
      </trkpt>
      <trkpt lat="48.75265" lon="7.26495">
        <ele>350.13</ele>
        <time>2014-01-01T15:17:55.099Z</time>
      </trkpt>
      <trkpt lat="48.75274" lon="7.26486">
        <ele>350.44</ele>
        <time>2014-01-01T15:18:00.095Z</time>
      </trkpt>
      <trkpt lat="48.75273" lon="7.2647">
        <ele>351.97</ele>
        <time>2014-01-01T15:18:05.099Z</time>
      </trkpt>
      <trkpt lat="48.7527" lon="7.26456">
        <ele>352.69</ele>
        <time>2014-01-01T15:18:09.085Z</time>
      </trkpt>
      <trkpt lat="48.75267" lon="7.26441">
        <ele>352.14</ele>
        <time>2014-01-01T15:18:13.074Z</time>
      </trkpt>
      <trkpt lat="48.75263" lon="7.26425">
        <ele>351.94</ele>
        <time>2014-01-01T15:18:17.105Z</time>
      </trkpt>
      <trkpt lat="48.7526" lon="7.26408">
        <ele>351.81</ele>
        <time>2014-01-01T15:18:21.105Z</time>
      </trkpt>
      <trkpt lat="48.75257" lon="7.26395">
        <ele>351.94</ele>
        <time>2014-01-01T15:18:24.092Z</time>
      </trkpt>
      <trkpt lat="48.75254" lon="7.26381">
        <ele>352.68</ele>
        <time>2014-01-01T15:18:27.065Z</time>
      </trkpt>
      <trkpt lat="48.75253" lon="7.26368">
        <ele>352.82</ele>
        <time>2014-01-01T15:18:30.099Z</time>
      </trkpt>
      <trkpt lat="48.7525" lon="7.26355">
        <ele>353.22</ele>
        <time>2014-01-01T15:18:33.089Z</time>
      </trkpt>
      <trkpt lat="48.75246" lon="7.26338">
        <ele>353.54</ele>
        <time>2014-01-01T15:18:37.098Z</time>
      </trkpt>
      <trkpt lat="48.75243" lon="7.26324">
        <ele>353.81</ele>
        <time>2014-01-01T15:18:40.120Z</time>
      </trkpt>
      <trkpt lat="48.75239" lon="7.2631">
        <ele>354.64</ele>
        <time>2014-01-01T15:18:43.099Z</time>
      </trkpt>
      <trkpt lat="48.75235" lon="7.26298">
        <ele>353.62</ele>
        <time>2014-01-01T15:18:46.055Z</time>
      </trkpt>
      <trkpt lat="48.75231" lon="7.26281">
        <ele>354.74</ele>
        <time>2014-01-01T15:18:50.103Z</time>
      </trkpt>
      <trkpt lat="48.75227" lon="7.26267">
        <ele>354.75</ele>
        <time>2014-01-01T15:18:53.098Z</time>
      </trkpt>
      <trkpt lat="48.75223" lon="7.26253">
        <ele>355.02</ele>
        <time>2014-01-01T15:18:56.084Z</time>
      </trkpt>
      <trkpt lat="48.75219" lon="7.2624">
        <ele>356.12</ele>
        <time>2014-01-01T15:18:59.081Z</time>
      </trkpt>
      <trkpt lat="48.75215" lon="7.26224">
        <ele>355.28</ele>
        <time>2014-01-01T15:19:02.098Z</time>
      </trkpt>
      <trkpt lat="48.75212" lon="7.26211">
        <ele>356.96</ele>
        <time>2014-01-01T15:19:05.099Z</time>
      </trkpt>
      <trkpt lat="48.75208" lon="7.26196">
        <ele>357.23</ele>
        <time>2014-01-01T15:19:08.096Z</time>
      </trkpt>
      <trkpt lat="48.75205" lon="7.26181">
        <ele>357.17</ele>
        <time>2014-01-01T15:19:11.102Z</time>
      </trkpt>
      <trkpt lat="48.75202" lon="7.26163">
        <ele>356.05</ele>
        <time>2014-01-01T15:19:14.102Z</time>
      </trkpt>
      <trkpt lat="48.75199" lon="7.26146">
        <ele>355.55</ele>
        <time>2014-01-01T15:19:17.099Z</time>
      </trkpt>
      <trkpt lat="48.75197" lon="7.26128">
        <ele>355.35</ele>
        <time>2014-01-01T15:19:20.100Z</time>
      </trkpt>
      <trkpt lat="48.75194" lon="7.26109">
        <ele>356.01</ele>
        <time>2014-01-01T15:19:23.100Z</time>
      </trkpt>
      <trkpt lat="48.75192" lon="7.26095">
        <ele>355.92</ele>
        <time>2014-01-01T15:19:25.101Z</time>
      </trkpt>
      <trkpt lat="48.75191" lon="7.26081">
        <ele>354.6</ele>
        <time>2014-01-01T15:19:27.097Z</time>
      </trkpt>
      <trkpt lat="48.75189" lon="7.26066">
        <ele>354.2</ele>
        <time>2014-01-01T15:19:29.086Z</time>
      </trkpt>
      <trkpt lat="48.75187" lon="7.26051">
        <ele>354.52</ele>
        <time>2014-01-01T15:19:31.099Z</time>
      </trkpt>
      <trkpt lat="48.75185" lon="7.26037">
        <ele>354.46</ele>
        <time>2014-01-01T15:19:33.102Z</time>
      </trkpt>
      <trkpt lat="48.75184" lon="7.26024">
        <ele>355.39</ele>
        <time>2014-01-01T15:19:35.096Z</time>
      </trkpt>
      <trkpt lat="48.75182" lon="7.2601">
        <ele>355.72</ele>
        <time>2014-01-01T15:19:37.100Z</time>
      </trkpt>
      <trkpt lat="48.7518" lon="7.25995">
        <ele>354.42</ele>
        <time>2014-01-01T15:19:39.093Z</time>
      </trkpt>
      <trkpt lat="48.75179" lon="7.25979">
        <ele>353.83</ele>
        <time>2014-01-01T15:19:41.099Z</time>
      </trkpt>
      <trkpt lat="48.75178" lon="7.25962">
        <ele>355.07</ele>
        <time>2014-01-01T15:19:43.103Z</time>
      </trkpt>
      <trkpt lat="48.75177" lon="7.25945">
        <ele>354.19</ele>
        <time>2014-01-01T15:19:45.089Z</time>
      </trkpt>
      <trkpt lat="48.75176" lon="7.25928">
        <ele>353.85</ele>
        <time>2014-01-01T15:19:47.074Z</time>
      </trkpt>
      <trkpt lat="48.75176" lon="7.2591">
        <ele>352.37</ele>
        <time>2014-01-01T15:19:49.072Z</time>
      </trkpt>
      <trkpt lat="48.75176" lon="7.25891">
        <ele>352.07</ele>
        <time>2014-01-01T15:19:51.081Z</time>
      </trkpt>
      <trkpt lat="48.75175" lon="7.25872">
        <ele>352.07</ele>
        <time>2014-01-01T15:19:53.079Z</time>
      </trkpt>
      <trkpt lat="48.75175" lon="7.25853">
        <ele>351.81</ele>
        <time>2014-01-01T15:19:55.042Z</time>
      </trkpt>
      <trkpt lat="48.75177" lon="7.25834">
        <ele>351.61</ele>
        <time>2014-01-01T15:19:57.098Z</time>
      </trkpt>
      <trkpt lat="48.75178" lon="7.25813">
        <ele>350.49</ele>
        <time>2014-01-01T15:19:59.122Z</time>
      </trkpt>
      <trkpt lat="48.7518" lon="7.25794">
        <ele>353.14</ele>
        <time>2014-01-01T15:20:01.132Z</time>
      </trkpt>
      <trkpt lat="48.75182" lon="7.25772">
        <ele>355.79</ele>
        <time>2014-01-01T15:20:03.127Z</time>
      </trkpt>
      <trkpt lat="48.75182" lon="7.25753">
        <ele>357.02</ele>
        <time>2014-01-01T15:20:05.130Z</time>
      </trkpt>
      <trkpt lat="48.75182" lon="7.25734">
        <ele>353.77</ele>
        <time>2014-01-01T15:20:07.133Z</time>
      </trkpt>
      <trkpt lat="48.75184" lon="7.25717">
        <ele>348.45</ele>
        <time>2014-01-01T15:20:09.118Z</time>
      </trkpt>
      <trkpt lat="48.75185" lon="7.25698">
        <ele>350</ele>
        <time>2014-01-01T15:20:11.124Z</time>
      </trkpt>
      <trkpt lat="48.75187" lon="7.25684">
        <ele>349.43</ele>
        <time>2014-01-01T15:20:13.133Z</time>
      </trkpt>
      <trkpt lat="48.75188" lon="7.25667">
        <ele>345.44</ele>
        <time>2014-01-01T15:20:15.117Z</time>
      </trkpt>
      <trkpt lat="48.7519" lon="7.25648">
        <ele>345.84</ele>
        <time>2014-01-01T15:20:17.132Z</time>
      </trkpt>
      <trkpt lat="48.75192" lon="7.2563">
        <ele>349.47</ele>
        <time>2014-01-01T15:20:19.113Z</time>
      </trkpt>
      <trkpt lat="48.75187" lon="7.25616">
        <ele>347.87</ele>
        <time>2014-01-01T15:20:24.115Z</time>
      </trkpt>
      <trkpt lat="48.75175" lon="7.25613">
        <ele>350.67</ele>
        <time>2014-01-01T15:20:27.079Z</time>
      </trkpt>
      <trkpt lat="48.75166" lon="7.25612">
        <ele>354.15</ele>
        <time>2014-01-01T15:20:29.067Z</time>
      </trkpt>
      <trkpt lat="48.75157" lon="7.25612">
        <ele>355.77</ele>
        <time>2014-01-01T15:20:31.075Z</time>
      </trkpt>
      <trkpt lat="48.75148" lon="7.25612">
        <ele>353.98</ele>
        <time>2014-01-01T15:20:33.078Z</time>
      </trkpt>
      <trkpt lat="48.75139" lon="7.2561">
        <ele>353.93</ele>
        <time>2014-01-01T15:20:35.081Z</time>
      </trkpt>
      <trkpt lat="48.7513" lon="7.25609">
        <ele>352.24</ele>
        <time>2014-01-01T15:20:37.076Z</time>
      </trkpt>
      <trkpt lat="48.75116" lon="7.25607">
        <ele>349.16</ele>
        <time>2014-01-01T15:20:40.132Z</time>
      </trkpt>
      <trkpt lat="48.75105" lon="7.25606">
        <ele>349.23</ele>
        <time>2014-01-01T15:20:42.132Z</time>
      </trkpt>
      <trkpt lat="48.75092" lon="7.25604">
        <ele>353.6</ele>
        <time>2014-01-01T15:20:45.114Z</time>
      </trkpt>
      <trkpt lat="48.75081" lon="7.25604">
        <ele>349.46</ele>
        <time>2014-01-01T15:20:47.062Z</time>
      </trkpt>
      <trkpt lat="48.75071" lon="7.25604">
        <ele>347.45</ele>
        <time>2014-01-01T15:20:49.120Z</time>
      </trkpt>
      <trkpt lat="48.7506" lon="7.25605">
        <ele>349.99</ele>
        <time>2014-01-01T15:20:51.128Z</time>
      </trkpt>
      <trkpt lat="48.7505" lon="7.25609">
        <ele>345.52</ele>
        <time>2014-01-01T15:20:53.128Z</time>
      </trkpt>
      <trkpt lat="48.75038" lon="7.25614">
        <ele>345.68</ele>
        <time>2014-01-01T15:20:55.106Z</time>
      </trkpt>
      <trkpt lat="48.75025" lon="7.25619">
        <ele>346.62</ele>
        <time>2014-01-01T15:20:57.130Z</time>
      </trkpt>
      <trkpt lat="48.75014" lon="7.25624">
        <ele>347.31</ele>
        <time>2014-01-01T15:20:59.109Z</time>
      </trkpt>
      <trkpt lat="48.75003" lon="7.2563">
        <ele>345.59</ele>
        <time>2014-01-01T15:21:01.131Z</time>
      </trkpt>
      <trkpt lat="48.74989" lon="7.25637">
        <ele>352.92</ele>
        <time>2014-01-01T15:21:03.100Z</time>
      </trkpt>
      <trkpt lat="48.74977" lon="7.25643">
        <ele>342.77</ele>
        <time>2014-01-01T15:21:05.126Z</time>
      </trkpt>
      <trkpt lat="48.74963" lon="7.25653">
        <ele>343.25</ele>
        <time>2014-01-01T15:21:07.125Z</time>
      </trkpt>
      <trkpt lat="48.74949" lon="7.2567">
        <ele>345.8</ele>
        <time>2014-01-01T15:21:09.119Z</time>
      </trkpt>
      <trkpt lat="48.74937" lon="7.25683">
        <ele>346.45</ele>
        <time>2014-01-01T15:21:11.103Z</time>
      </trkpt>
      <trkpt lat="48.74925" lon="7.25695">
        <ele>340.07</ele>
        <time>2014-01-01T15:21:13.137Z</time>
      </trkpt>
      <trkpt lat="48.7491" lon="7.25707">
        <ele>340.11</ele>
        <time>2014-01-01T15:21:15.041Z</time>
      </trkpt>
      <trkpt lat="48.74903" lon="7.25727">
        <ele>339.15</ele>
        <time>2014-01-01T15:21:17.087Z</time>
      </trkpt>
      <trkpt lat="48.74894" lon="7.25744">
        <ele>340.04</ele>
        <time>2014-01-01T15:21:19.068Z</time>
      </trkpt>
      <trkpt lat="48.74888" lon="7.25759">
        <ele>341.46</ele>
        <time>2014-01-01T15:21:21.090Z</time>
      </trkpt>
      <trkpt lat="48.74882" lon="7.25773">
        <ele>342.31</ele>
        <time>2014-01-01T15:21:23.148Z</time>
      </trkpt>
      <trkpt lat="48.74876" lon="7.25787">
        <ele>344.18</ele>
        <time>2014-01-01T15:21:25.083Z</time>
      </trkpt>
      <trkpt lat="48.74868" lon="7.25802">
        <ele>342.51</ele>
        <time>2014-01-01T15:21:28.043Z</time>
      </trkpt>
      <trkpt lat="48.74863" lon="7.25813">
        <ele>341.88</ele>
        <time>2014-01-01T15:21:30.080Z</time>
      </trkpt>
      <trkpt lat="48.74854" lon="7.25827">
        <ele>339.24</ele>
        <time>2014-01-01T15:21:33.079Z</time>
      </trkpt>
      <trkpt lat="48.74846" lon="7.25843">
        <ele>343.86</ele>
        <time>2014-01-01T15:21:36.055Z</time>
      </trkpt>
      <trkpt lat="48.74838" lon="7.25859">
        <ele>342.88</ele>
        <time>2014-01-01T15:21:39.062Z</time>
      </trkpt>
      <trkpt lat="48.74831" lon="7.25872">
        <ele>345.91</ele>
        <time>2014-01-01T15:21:42.079Z</time>
      </trkpt>
      <trkpt lat="48.74822" lon="7.25884">
        <ele>345.86</ele>
        <time>2014-01-01T15:21:45.086Z</time>
      </trkpt>
      <trkpt lat="48.74811" lon="7.25893">
        <ele>343.82</ele>
        <time>2014-01-01T15:21:48.134Z</time>
      </trkpt>
      <trkpt lat="48.74803" lon="7.25902">
        <ele>341.3</ele>
        <time>2014-01-01T15:21:51.134Z</time>
      </trkpt>
      <trkpt lat="48.74794" lon="7.2591">
        <ele>347.53</ele>
        <time>2014-01-01T15:21:54.122Z</time>
      </trkpt>
      <trkpt lat="48.74788" lon="7.2592">
        <ele>344.38</ele>
        <time>2014-01-01T15:21:56.103Z</time>
      </trkpt>
      <trkpt lat="48.74778" lon="7.25931">
        <ele>344.79</ele>
        <time>2014-01-01T15:21:59.119Z</time>
      </trkpt>
      <trkpt lat="48.74769" lon="7.25937">
        <ele>349.02</ele>
        <time>2014-01-01T15:22:02.191Z</time>
      </trkpt>
      <trkpt lat="48.74759" lon="7.25931">
        <ele>346.54</ele>
        <time>2014-01-01T15:22:05.135Z</time>
      </trkpt>
      <trkpt lat="48.74749" lon="7.25926">
        <ele>346.78</ele>
        <time>2014-01-01T15:22:08.137Z</time>
      </trkpt>
      <trkpt lat="48.74737" lon="7.25919">
        <ele>350.15</ele>
        <time>2014-01-01T15:22:11.127Z</time>
      </trkpt>
      <trkpt lat="48.74726" lon="7.25911">
        <ele>353.01</ele>
        <time>2014-01-01T15:22:14.120Z</time>
      </trkpt>
      <trkpt lat="48.74717" lon="7.25906">
        <ele>354.27</ele>
        <time>2014-01-01T15:22:16.104Z</time>
      </trkpt>
      <trkpt lat="48.74706" lon="7.259">
        <ele>351.01</ele>
        <time>2014-01-01T15:22:19.116Z</time>
      </trkpt>
      <trkpt lat="48.74697" lon="7.25895">
        <ele>353.17</ele>
        <time>2014-01-01T15:22:21.134Z</time>
      </trkpt>
      <trkpt lat="48.74686" lon="7.25888">
        <ele>351.49</ele>
        <time>2014-01-01T15:22:24.122Z</time>
      </trkpt>
      <trkpt lat="48.74677" lon="7.25884">
        <ele>349.67</ele>
        <time>2014-01-01T15:22:26.074Z</time>
      </trkpt>
      <trkpt lat="48.74668" lon="7.25878">
        <ele>356.43</ele>
        <time>2014-01-01T15:22:28.128Z</time>
      </trkpt>
      <trkpt lat="48.74658" lon="7.25868">
        <ele>353.61</ele>
        <time>2014-01-01T15:22:31.136Z</time>
      </trkpt>
      <trkpt lat="48.74648" lon="7.25859">
        <ele>351.87</ele>
        <time>2014-01-01T15:22:33.131Z</time>
      </trkpt>
      <trkpt lat="48.7464" lon="7.25852">
        <ele>355.38</ele>
        <time>2014-01-01T15:22:35.125Z</time>
      </trkpt>
      <trkpt lat="48.74631" lon="7.25846">
        <ele>356.56</ele>
        <time>2014-01-01T15:22:37.133Z</time>
      </trkpt>
      <trkpt lat="48.74621" lon="7.25844">
        <ele>350.46</ele>
        <time>2014-01-01T15:22:40.135Z</time>
      </trkpt>
      <trkpt lat="48.7461" lon="7.25856">
        <ele>356.03</ele>
        <time>2014-01-01T15:22:43.131Z</time>
      </trkpt>
      <trkpt lat="48.74605" lon="7.25871">
        <ele>352.12</ele>
        <time>2014-01-01T15:22:47.133Z</time>
      </trkpt>
    </trkseg>
  </trk>
</gpx>